Another Hard Day at the Office Weather Stats

 
 
 

High monthly outside Temperature, 11.1 , C
Low monthly outside Temperature, 4.4 , C
High yearly outside Temperature, 17.1 , C
Low yearly outside Temperature, -2.4 , C

Low monthly barometer, 1017.6 , mb
High monthly barometer, 1025.8 , mb
Low yearly barometer, 975.0 , mb
High yearly barometer 1041.1 , mb

High wind speed, 33.0 , mph
Time of High wind speed, 20:36 , mph
High monthly wind speed, 33.0 , mph
High yearly wind speed, 55.0 , mph

 

 




3125
                    Temp     Hi    Low   Out    Dew  Wind  Wind   Wind    Hi    Hi   Wind   Heat    THW                Rain    Heat    Cool    In     In    In     In     In   In Air  Wind  Wind    ISS   Arc.
  Date    Time     Out   Temp   Temp   Hum    Pt. Speed   Dir    Run Speed   Dir  Chill  Index  Index   Bar    Rain  Rate    D-D     D-D    Temp   Hum    Dew   Heat    EMC Density  Samp   Tx   Recept  Int.
---------------------------------------------------------------------------------------------------------------------------------------------------------------------------------------------------------------
31/03/15   0:05    9.7    9.8    9.7    96    9.1  33.0   WSW   2.75  44.0   WSW    3.9   10.0    4.2   999.1  0.00   0.0   0.030   0.000   21.7    44    8.9   20.6   8.33 1.1675    114    1    100.0    5 
31/03/15   0:10    9.7    9.7    9.7    95    9.0  32.0   WSW   2.67  43.0   WSW    4.0   10.0    4.3   999.0  0.00   0.0   0.030   0.000   21.7    44    8.9   20.6   8.33 1.1673    118    1    100.0    5 
31/03/15   0:15    9.7    9.7    9.7    96    9.1  31.0   WSW   2.58  44.0   WSW    4.0    9.9    4.3   998.9  0.00   0.0   0.030   0.000   21.7    44    8.9   20.6   8.33 1.1675    115    1    100.0    5 
31/03/15   0:20    9.8    9.8    9.7    96    9.2  34.0   WSW   2.83  46.0   WSW    3.9   10.1    4.2   999.0  0.00   0.0   0.030   0.000   21.7    44    8.9   20.6   8.33 1.1676    117    1    100.0    5 
31/03/15   0:25    9.9    9.9    9.8    96    9.3  31.0   WSW   2.58  46.0   WSW    4.3   10.2    4.6   999.1  0.00   0.0   0.029   0.000   21.7    44    8.9   20.6   8.33 1.1677    117    1    100.0    5 
31/03/15   0:30   10.0   10.0    9.9    95    9.2  31.0   WSW   2.58  45.0   WSW    4.4   10.3    4.7   999.1  0.00   0.0   0.029   0.000   21.6    44    8.8   20.5   8.33 1.1680    117    1    100.0    5 
31/03/15   0:35   10.0   10.1   10.0    95    9.2  29.0   WSW   2.42  45.0   WSW    4.6   10.3    4.8   999.2  0.00   0.0   0.029   0.000   21.6    44    8.8   20.4   8.33 1.1684    116    1    100.0    5 
31/03/15   0:40   10.1   10.1   10.0    95    9.3  31.0   WSW   2.58  43.0     W    4.5   10.4    4.8   999.1  0.00   0.0   0.029   0.000   21.6    44    8.8   20.4   8.33 1.1683    117    1    100.0    5 
31/03/15   0:45   10.1   10.1   10.1    95    9.3  26.0   WSW   2.17  41.0   WSW    4.8   10.3    5.1   999.1  0.00   0.0   0.029   0.000   21.6    44    8.8   20.4   8.33 1.1683    116    1    100.0    5 
31/03/15   0:50   10.1   10.1   10.1    95    9.3  25.0   WSW   2.08  38.0   WSW    4.9   10.3    5.2   999.1  0.00   0.0   0.029   0.000   21.6    44    8.8   20.4   8.33 1.1682    117    1    100.0    5 
31/03/15   0:55   10.1   10.1   10.1    95    9.3  24.0   WSW   2.00  34.0   WSW    5.1   10.3    5.3   999.2  0.00   0.0   0.029   0.000   21.5    44    8.7   20.3   8.34 1.1687    117    1    100.0    5 
31/03/15   1:00   10.1   10.1   10.1    94    9.2  23.0   WSW   1.92  36.0   WSW    5.2   10.3    5.4   999.1  0.00   0.0   0.029   0.000   21.5    44    8.7   20.3   8.34 1.1685    117    1    100.0    5 
31/03/15   1:05   10.1   10.2   10.1    94    9.2  23.0   WSW   1.92  32.0     W    5.2   10.3    5.4   999.1  0.00   0.0   0.029   0.000   21.4    44    8.7   20.3   8.34 1.1687    116    1    100.0    5 
31/03/15   1:10   10.2   10.2   10.1    94    9.2  24.0     W   2.00  35.0     W    5.2   10.4    5.4   999.1  0.00   0.0   0.028   0.000   21.4    44    8.7   20.3   8.34 1.1688    116    1    100.0    5 
31/03/15   1:15   10.2   10.2   10.2    93    9.1  24.0   WSW   2.00  33.0   WSW    5.2   10.4    5.4   999.0  0.00   0.0   0.028   0.000   21.4    44    8.6   20.2   8.34 1.1690    116    1    100.0    5 
31/03/15   1:20   10.3   10.3   10.2    93    9.2  24.0     W   2.00  36.0   WSW    5.3   10.5    5.6   999.0  0.00   0.0   0.028   0.000   21.4    44    8.6   20.2   8.34 1.1690    116    1    100.0    5 
31/03/15   1:25   10.3   10.3   10.3    92    9.0  21.0     W   1.75  32.0     W    5.7   10.4    5.8   999.1  0.00   0.0   0.028   0.000   21.3    44    8.6   20.1   8.34 1.1693    117    1    100.0    5 
31/03/15   1:30   10.4   10.4   10.3    91    9.0  22.0   WSW   1.83  32.0   WSW    5.7   10.6    5.8   999.2  0.00   0.0   0.028   0.000   21.3    44    8.6   20.1   8.34 1.1694    117    1    100.0    5 
31/03/15   1:35   10.4   10.4   10.3    91    9.0  22.0     W   1.83  32.0   WSW    5.7   10.6    5.9   999.1  0.00   0.0   0.027   0.000   21.3    44    8.6   20.1   8.34 1.1694    116    1    100.0    5 
31/03/15   1:40   10.6   10.6   10.4    90    9.0  22.0     W   1.83  35.0     W    5.8   10.7    5.9   999.2  0.00   0.0   0.027   0.000   21.3    44    8.6   20.1   8.34 1.1694    117    1    100.0    5 
31/03/15   1:45   10.7   10.7   10.6    89    9.0  19.0     W   1.58  28.0     W    6.4   10.8    6.5   999.2  0.00   0.0   0.026   0.000   21.3    44    8.5   20.1   8.34 1.1697    117    1    100.0    5 
31/03/15   1:50   10.8   10.8   10.7    88    8.9  17.0     W   1.42  26.0     W    6.8   10.8    6.8   999.1  0.00   0.0   0.026   0.000   21.3    44    8.5   20.1   8.34 1.1696    115    1    100.0    5 
31/03/15   1:55   10.9   10.9   10.8    87    8.9  18.0     W   1.50  34.0     W    6.8   11.0    6.9   999.1  0.00   0.0   0.026   0.000   21.3    44    8.5   20.1   8.34 1.1695    117    1    100.0    5 
31/03/15   2:00   11.5   11.5   11.0    83    8.7  19.0     W   1.58  35.0     W    7.3   11.4    7.2   999.2  0.00   0.0   0.024   0.000   21.2    43    8.1   19.9   8.24 1.1703    117    1    100.0    5 
31/03/15   2:05   11.7   11.7   11.6    81    8.5  17.0     W   1.42  30.0   WNW    7.8   11.5    7.6   999.3  0.00   0.0   0.023   0.000   21.2    44    8.5   20.0   8.35 1.1701    116    1    100.0    5 
31/03/15   2:10   11.9   11.9   11.7    79    8.4  19.0     W   1.58  31.0     W    7.7   11.7    7.6   999.5  0.00   0.0   0.022   0.000   21.2    43    8.1   19.9   8.24 1.1706    115    1    100.0    5 
31/03/15   2:15   12.1   12.1   11.9    78    8.3  22.0     W   1.83  37.0   WNW    7.6   11.8    7.3   999.5  0.00   0.0   0.022   0.000   21.2    43    8.1   19.8   8.25 1.1709    116    1    100.0    5 
31/03/15   2:20   12.1   12.1   12.1    77    8.2  20.0     W   1.67  35.0   WNW    7.9   11.9    7.7   999.7  0.00   0.0   0.022   0.000   21.2    43    8.1   19.8   8.25 1.1711    117    1    100.0    5 
31/03/15   2:25   12.1   12.2   12.1    77    8.1  19.0     W   1.58  29.0     W    7.9   11.8    7.7   999.6  0.00   0.0   0.022   0.000   21.2    43    8.1   19.8   8.25 1.1710    116    1    100.0    5 
31/03/15   2:30   12.1   12.1   12.1    78    8.3  20.0     W   1.67  32.0     W    7.8   11.8    7.6   999.6  0.00   0.0   0.022   0.000   21.2    43    8.1   19.8   8.25 1.1710    117    1    100.0    5 
31/03/15   2:35   11.9   12.1   11.9    78    8.2  19.0     W   1.58  28.0     W    7.8   11.7    7.6   999.6  0.00   0.0   0.022   0.000   21.1    43    8.0   19.8   8.25 1.1713    117    1    100.0    5 
31/03/15   2:40   11.9   11.9   11.9    78    8.2  22.0     W   1.83  36.0     W    7.4   11.7    7.2   999.8  0.00   0.0   0.022   0.000   21.1    43    8.0   19.8   8.25 1.1716    117    1    100.0    5 
31/03/15   2:45   11.8   11.9   11.8    78    8.1  22.0     W   1.83  38.0     W    7.3   11.6    7.1   999.9  0.00   0.0   0.023   0.000   21.1    43    8.0   19.8   8.25 1.1716    117    1    100.0    5 
31/03/15   2:50   11.8   11.9   11.8    79    8.3  19.0     W   1.58  34.0   WNW    7.7   11.7    7.5  1000.1  0.00   0.0   0.023   0.000   21.1    43    8.0   19.8   8.25 1.1718    117    1    100.0    5 
31/03/15   2:55   11.8   11.8   11.8    78    8.1  18.0     W   1.50  29.0     W    7.7   11.6    7.5   999.9  0.00   0.0   0.023   0.000   21.1    43    8.0   19.7   8.25 1.1719    117    1    100.0    5 
31/03/15   3:00   11.7   11.8   11.7    77    7.8  20.0     W   1.67  32.0     W    7.4   11.5    7.2  1000.0  0.00   0.0   0.023   0.000   21.1    43    8.0   19.7   8.25 1.1720    117    1    100.0    5 
31/03/15   3:05   11.7   11.8   11.7    74    7.2  21.0     W   1.75  36.0     W    7.2   11.4    6.9  1000.1  0.00   0.0   0.023   0.000   21.1    43    8.0   19.7   8.25 1.1722    117    1    100.0    5 
31/03/15   3:10   11.6   11.7   11.6    72    6.7  22.0     W   1.83  37.0   WNW    7.1   11.3    6.7  1000.3  0.00   0.0   0.023   0.000   21.1    43    8.0   19.7   8.25 1.1724    117    1    100.0    5 
31/03/15   3:15   11.4   11.6   11.4    73    6.7  19.0     W   1.58  31.0     W    7.2   11.1    6.9  1000.2  0.00   0.0   0.024   0.000   21.0    43    7.9   19.7   8.25 1.1725    117    1    100.0    5 
31/03/15   3:20   11.3   11.4   11.3    72    6.5  22.0   WNW   1.83  35.0   WNW    6.7   11.0    6.4  1000.5  0.00   0.0   0.024   0.000   21.0    43    7.9   19.7   8.25 1.1729    118    1    100.0    5 
31/03/15   3:25   11.4   11.4   11.3    71    6.3  25.0     W   2.08  37.0     W    6.5   11.1    6.2  1000.7  0.00   0.0   0.024   0.000   21.0    43    7.9   19.7   8.25 1.1731    117    1    100.0    5 
31/03/15   3:30   11.3   11.4   11.3    71    6.3  20.0     W   1.67  38.0     W    6.9   11.0    6.6  1000.5  0.00   0.0   0.024   0.000   20.9    43    7.9   19.7   8.25 1.1732    117    1    100.0    5 
31/03/15   3:35   11.3   11.3   11.3    70    6.0  22.0     W   1.83  37.0     W    6.7   10.9    6.3  1000.7  0.00   0.0   0.024   0.000   20.9    43    7.9   19.7   8.25 1.1734    117    1    100.0    5 
31/03/15   3:40   11.3   11.3   11.3    69    5.8  20.0     W   1.67  36.0     W    6.9   10.9    6.5  1000.8  0.00   0.0   0.024   0.000   20.9    43    7.9   19.7   8.25 1.1735    117    1    100.0    5 
31/03/15   3:45   11.3   11.3   11.3    68    5.6  21.0     W   1.75  38.0     W    6.8   10.9    6.4  1001.3  0.00   0.0   0.024   0.000   20.9    43    7.8   19.6   8.25 1.1743    117    1    100.0    5 
31/03/15   3:50   11.3   11.3   11.3    67    5.4  21.0     W   1.75  33.0   WNW    6.8   10.9    6.4  1001.2  0.00   0.0   0.024   0.000   20.9    43    7.8   19.6   8.25 1.1742    117    1    100.0    5 
31/03/15   3:55   11.2   11.3   11.2    67    5.3  22.0     W   1.83  35.0     W    6.6   10.8    6.2  1001.3  0.00   0.0   0.025   0.000   20.8    43    7.8   19.6   8.25 1.1746    117    1    100.0    5 
31/03/15   4:00   11.1   11.2   11.1    65    4.8  22.0     W   1.83  35.0   WNW    6.5   10.7    6.1  1001.4  0.00   0.0   0.025   0.000   20.8    43    7.8   19.6   8.25 1.1748    117    1    100.0    5 
31/03/15   4:05   11.1   11.1   11.1    65    4.7  16.0   WNW   1.33  30.0    NW    7.3   10.6    6.8  1001.4  0.00   0.0   0.025   0.000   20.8    43    7.8   19.6   8.25 1.1747    117    1    100.0    5 
31/03/15   4:10   11.1   11.1   11.1    65    4.7  21.0     W   1.75  33.0   WNW    6.6   10.6    6.1  1001.8  0.00   0.0   0.025   0.000   20.8    43    7.8   19.6   8.25 1.1752    117    1    100.0    5 
31/03/15   4:15   11.0   11.1   11.0    67    5.1  19.0     W   1.58  30.0     W    6.7   10.6    6.3  1001.8  0.00   0.0   0.025   0.000   20.8    43    7.7   19.6   8.25 1.1755    117    1    100.0    5 
31/03/15   4:20   10.9   11.0   10.9    68    5.3  23.0     W   1.92  39.0     W    6.2   10.6    5.8  1001.9  0.00   0.0   0.026   0.000   20.8    43    7.7   19.6   8.25 1.1756    118    1    100.0    5 
31/03/15   4:25   10.8   10.9   10.8    69    5.4  20.0     W   1.67  39.0     W    6.4   10.5    6.1  1002.0  0.00   0.0   0.026   0.000   20.7    43    7.7   19.5   8.25 1.1760    117    1    100.0    5 
31/03/15   4:30   10.8   10.9   10.8    69    5.4  20.0     W   1.67  38.0     W    6.4   10.5    6.1  1002.2  0.00   0.0   0.026   0.000   20.7    43    7.7   19.5   8.25 1.1762    116    1    100.0    5 
31/03/15   4:35   10.8   10.8   10.7    69    5.3  19.0     W   1.58  31.0   WSW    6.4   10.4    6.1  1002.1  0.00   0.0   0.026   0.000   20.7    43    7.7   19.5   8.25 1.1761    117    1    100.0    5 
31/03/15   4:40   10.7   10.8   10.7    70    5.4  20.0     W   1.67  29.0     W    6.2   10.4    5.9  1002.5  0.00   0.0   0.027   0.000   20.7    43    7.6   19.4   8.25 1.1768    117    1    100.0    5 
31/03/15   4:45   10.6   10.7   10.6    70    5.4  21.0     W   1.75  35.0   WNW    6.0   10.3    5.7  1002.7  0.00   0.0   0.027   0.000   20.7    43    7.6   19.4   8.25 1.1771    116    1    100.0    5 
31/03/15   4:50   10.6   10.6   10.6    71    5.5  21.0     W   1.75  37.0     W    5.9   10.3    5.7  1002.9  0.00   0.0   0.027   0.000   20.7    43    7.6   19.4   8.25 1.1773    116    1    100.0    5 
31/03/15   4:55   10.6   10.6   10.6    71    5.5  19.0     W   1.58  32.0     W    6.2   10.3    5.9  1003.0  0.00   0.0   0.027   0.000   20.6    43    7.6   19.4   8.25 1.1777    117    1    100.0    5 
31/03/15   5:00   10.6   10.6   10.5    69    5.1  22.0     W   1.83  36.0   WNW    5.8   10.3    5.6  1003.2  0.00   0.0   0.027   0.000   20.6    43    7.6   19.4   8.25 1.1779    117    1    100.0    5 
31/03/15   5:05   10.5   10.6   10.5    68    4.8  16.0   WNW   1.33  29.0     W    6.6   10.2    6.3  1003.3  0.00   0.0   0.027   0.000   20.6    42    7.2   19.3   8.07 1.1786    117    1    100.0    5 
31/03/15   5:10   10.5   10.5   10.5    67    4.6  18.0   WNW   1.50  34.0     W    6.3   10.2    6.0  1003.5  0.00   0.0   0.027   0.000   20.6    42    7.2   19.3   8.07 1.1788    116    1    100.0    5 
31/03/15   5:15   10.5   10.5   10.5    66    4.4  17.0   WNW   1.42  32.0     W    6.4   10.2    6.1  1003.7  0.00   0.0   0.027   0.000   20.6    42    7.2   19.3   8.07 1.1791    117    1    100.0    5 
31/03/15   5:20   10.5   10.5   10.4    66    4.4  17.0   WNW   1.42  30.0     W    6.4   10.2    6.1  1003.8  0.00   0.0   0.027   0.000   20.6    42    7.2   19.3   8.07 1.1792    117    1    100.0    5 
31/03/15   5:25   10.5   10.5   10.4    66    4.4  18.0     W   1.50  29.0   WSW    6.3   10.2    6.0  1003.8  0.00   0.0   0.027   0.000   20.5    42    7.1   19.3   8.07 1.1795    117    1    100.0    5 
31/03/15   5:30   10.4   10.5   10.4    66    4.4  16.0     W   1.33  29.0   WNW    6.6   10.1    6.2  1004.0  0.00   0.0   0.027   0.000   20.5    42    7.1   19.3   8.07 1.1797    117    1    100.0    5 
31/03/15   5:35   10.4   10.5   10.4    67    4.6  17.0     W   1.42  28.0   WNW    6.4   10.1    6.1  1004.2  0.00   0.0   0.027   0.000   20.4    42    7.1   19.2   8.07 1.1802    117    1    100.0    5 
31/03/15   5:40   10.4   10.4   10.4    67    4.6  16.0     W   1.33  25.0   WNW    6.6   10.1    6.2  1004.2  0.00   0.0   0.027   0.000   20.4    42    7.1   19.2   8.07 1.1802    117    1    100.0    5 
31/03/15   5:45   10.4   10.4   10.4    66    4.4  17.0     W   1.42  31.0   WNW    6.4   10.1    6.1  1004.2  0.00   0.0   0.027   0.000   20.4    42    7.1   19.2   8.07 1.1802    117    1    100.0    5 
31/03/15   5:50   10.5   10.6   10.4    66    4.4  21.0     W   1.75  37.0     W    5.9   10.2    5.6  1004.3  0.00   0.0   0.027   0.000   20.4    42    7.1   19.2   8.07 1.1803    116    1    100.0    5 
31/03/15   5:55   10.6   10.6   10.5    65    4.2  21.0     W   1.75  35.0     W    5.9   10.2    5.6  1004.4  0.00   0.0   0.027   0.000   20.4    42    7.0   19.2   8.08 1.1807    117    1    100.0    5 
31/03/15   6:00   10.6   10.6   10.6    66    4.5  16.0     W   1.33  27.0   WNW    6.7   10.2    6.3  1004.4  0.00   0.0   0.027   0.000   20.4    42    7.0   19.2   8.08 1.1807    116    1    100.0    5 
31/03/15   6:05   10.7   10.7   10.6    65    4.4  16.0     W   1.33  27.0     W    6.8   10.3    6.4  1004.6  0.00   0.0   0.027   0.000   20.4    42    7.0   19.2   8.08 1.1810    117    1    100.0    5 
31/03/15   6:10   10.7   10.7   10.7    65    4.4  18.0     W   1.50  30.0   WSW    6.6   10.3    6.2  1004.7  0.00   0.0   0.026   0.000   20.3    42    7.0   19.1   8.08 1.1813    117    1    100.0    5 
31/03/15   6:15   10.7   10.7   10.7    65    4.4  17.0     W   1.42  30.0     W    6.7   10.3    6.3  1004.9  0.00   0.0   0.026   0.000   20.3    42    7.0   19.1   8.08 1.1816    117    1    100.0    5 
31/03/15   6:20   10.7   10.7   10.7    65    4.4  16.0     W   1.33  32.0   WNW    6.8   10.3    6.4  1005.0  0.00   0.0   0.027   0.000   20.3    42    7.0   19.1   8.08 1.1817    116    1    100.0    5 
31/03/15   6:25   10.7   10.7   10.7    65    4.4  16.0     W   1.33  28.0     W    6.8   10.3    6.4  1005.3  0.00   0.0   0.027   0.000   20.3    42    7.0   19.1   8.08 1.1821    117    1    100.0    5 
31/03/15   6:30   10.7   10.7   10.6    65    4.4  19.0     W   1.58  31.0     W    6.3   10.3    5.9  1005.3  0.00   0.0   0.027   0.000   20.3    42    7.0   19.1   8.08 1.1820    118    1    100.0    5 
31/03/15   6:35   10.6   10.7   10.6    66    4.5  16.0   WNW   1.33  28.0   WNW    6.7   10.2    6.3  1005.6  0.00   0.0   0.027   0.000   20.3    42    7.0   19.1   8.08 1.1824    117    1    100.0    5 
31/03/15   6:40   10.6   10.6   10.6    67    4.7  15.0     W   1.25  28.0     W    6.9   10.3    6.6  1005.6  0.00   0.0   0.027   0.000   20.3    42    6.9   19.1   8.08 1.1826    116    1    100.0    5 
31/03/15   6:45   10.6   10.6   10.6    67    4.7  17.0     W   1.42  28.0    NW    6.6   10.3    6.2  1005.8  0.00   0.0   0.027   0.000   20.3    42    6.9   19.1   8.08 1.1828    117    1    100.0    5 
31/03/15   6:50   10.7   10.7   10.6    67    4.8  15.0     W   1.25  29.0   WNW    7.1   10.4    6.7  1005.8  0.00   0.0   0.026   0.000   20.3    42    6.9   19.1   8.08 1.1828    115    1    100.0    5 
31/03/15   6:55   10.8   10.8   10.7    67    4.9  17.0     W   1.42  31.0     W    6.8   10.4    6.4  1006.1  0.00   0.0   0.026   0.000   20.3    42    6.9   19.1   8.08 1.1832    117    1    100.0    5 
31/03/15   7:00   10.8   10.8   10.8    67    4.9  17.0     W   1.42  31.0     W    6.8   10.4    6.4  1006.1  0.00   0.0   0.026   0.000   20.3    42    6.9   19.1   8.08 1.1832    117    1    100.0    5 
31/03/15   7:05   10.8   10.8   10.8    67    4.9  18.0     W   1.50  30.0     W    6.6   10.4    6.2  1006.3  0.00   0.0   0.026   0.000   20.3    42    6.9   19.1   8.08 1.1834    117    1    100.0    5 
31/03/15   7:10   10.7   10.8   10.7    67    4.8  19.0     W   1.58  30.0     W    6.4   10.4    6.1  1006.5  0.00   0.0   0.026   0.000   20.3    42    6.9   19.1   8.08 1.1838    116    1    100.0    5 
31/03/15   7:15   10.7   10.7   10.7    68    5.0  18.0     W   1.50  31.0   WNW    6.5   10.3    6.2  1006.5  0.00   0.0   0.027   0.000   20.2    42    6.9   19.0   8.08 1.1840    117    1    100.0    5 
31/03/15   7:20   10.7   10.7   10.7    68    5.1  18.0   WNW   1.50  27.0    NW    6.6   10.4    6.2  1006.7  0.00   0.0   0.026   0.000   20.2    42    6.9   19.0   8.08 1.1842    117    1    100.0    5 
31/03/15   7:25   10.7   10.7   10.7    68    5.1  16.0   WNW   1.33  29.0   WNW    6.9   10.4    6.6  1006.9  0.00   0.0   0.026   0.000   20.2    42    6.9   19.0   8.08 1.1845    117    1    100.0    5 
31/03/15   7:30   10.8   10.8   10.7    68    5.1  18.0   WNW   1.50  30.0   WNW    6.6   10.4    6.3  1006.9  0.00   0.0   0.026   0.000   20.2    42    6.9   19.0   8.08 1.1845    116    1    100.0    5 
31/03/15   7:35   10.9   10.9   10.8    68    5.3  15.0   WNW   1.25  26.0    NW    7.3   10.6    6.9  1007.1  0.00   0.0   0.026   0.000   20.2    42    6.9   19.0   8.08 1.1847    118    1    100.0    5 
31/03/15   7:40   11.1   11.1   10.9    68    5.4  17.0     W   1.42  29.0   WNW    7.1   10.7    6.7  1007.3  0.00   0.0   0.025   0.000   20.2    42    6.9   19.0   8.08 1.1849    116    1    100.0    5 
31/03/15   7:45   11.3   11.3   11.1    68    5.6  14.0     W   1.17  27.0     W    7.8   10.9    7.4  1007.4  0.00   0.0   0.024   0.000   20.2    42    6.9   19.0   8.08 1.1850    117    1    100.0    5 
31/03/15   7:50   11.2   11.3   11.2    67    5.3  17.0   WNW   1.42  30.0   WNW    7.2   10.8    6.8  1007.5  0.00   0.0   0.025   0.000   20.2    42    6.9   19.0   8.08 1.1852    117    1    100.0    5 
31/03/15   7:55   11.2   11.2   11.2    68    5.5  16.0     W   1.33  30.0   WNW    7.4   10.8    7.1  1007.7  0.00   0.0   0.025   0.000   20.2    42    6.9   19.0   8.08 1.1854    116    1    100.0    5 
31/03/15   8:00   11.4   11.4   11.2    67    5.5  17.0     W   1.42  28.0   WNW    7.6   11.0    7.1  1007.8  0.00   0.0   0.024   0.000   20.2    42    6.9   19.0   8.08 1.1855    117    1    100.0    5 
31/03/15   8:05   11.7   11.7   11.4    67    5.7  14.0   WNW   1.17  26.0     W    8.3   11.2    7.8  1007.9  0.00   0.0   0.023   0.000   20.2    42    6.9   19.0   8.08 1.1856    117    1    100.0    5 
31/03/15   8:10   11.6   11.7   11.6    65    5.2  17.0   WNW   1.42  28.0   WNW    7.7   11.1    7.2  1008.0  0.00   0.0   0.023   0.000   20.2    42    6.9   19.0   8.08 1.1858    116    1    100.0    5 
31/03/15   8:15   11.7   11.7   11.6    65    5.3  15.0   WNW   1.25  25.0     W    8.1   11.2    7.6  1008.2  0.00   0.0   0.023   0.000   20.2    42    6.9   19.0   8.08 1.1860    116    1    100.0    5 
31/03/15   8:20   11.8   11.8   11.7    65    5.5  13.0   WNW   1.08  22.0     W    8.7   11.3    8.2  1008.2  0.00   0.0   0.023   0.000   20.2    42    6.9   19.0   8.08 1.1860    116    1    100.0    5 
31/03/15   8:25   11.9   11.9   11.8    63    5.1  17.0   WNW   1.42  33.0     W    8.0   11.3    7.4  1008.2  0.00   0.0   0.022   0.000   20.2    42    6.9   19.0   8.08 1.1860    116    1    100.0    5 
31/03/15   8:30   11.8   11.9   11.8    62    4.8  17.0   WNW   1.42  28.0   WNW    7.9   11.3    7.4  1008.4  0.00   0.0   0.023   0.000   20.3    42    6.9   19.1   8.08 1.1860    116    1    100.0    5 
31/03/15   8:35   11.9   11.9   11.8    60    4.4  20.0   WNW   1.67  35.0   WNW    7.7   11.3    7.0  1008.6  0.00   0.0   0.022   0.000   20.3    42    6.9   19.1   8.08 1.1862    118    1    100.0    5 
31/03/15   8:40   12.2   12.2   11.9    60    4.7  16.0   WNW   1.33  28.0    NW    8.6   11.6    7.9  1008.7  0.00   0.0   0.021   0.000   20.3    42    6.9   19.1   8.08 1.1863    117    1    100.0    5 
31/03/15   8:45   12.2   12.3   12.2    60    4.7  14.0   WNW   1.17  25.0    NW    8.9   11.6    8.3  1008.8  0.00   0.0   0.021   0.000   20.3    42    6.9   19.1   8.08 1.1864    117    1    100.0    5 
31/03/15   8:50   12.2   12.2   12.2    57    3.9  16.0   WNW   1.33  28.0    NW    8.6   11.5    7.8  1008.9  0.00   0.0   0.021   0.000   20.3    42    6.9   19.1   8.08 1.1866    117    1    100.0    5 
31/03/15   8:55   12.5   12.5   12.2    56    4.0  22.0   WNW   1.83  37.0    NW    8.1   11.7    7.3  1009.0  0.00   0.0   0.020   0.000   20.3    42    7.0   19.1   8.08 1.1865    116    1    100.0    5 
31/03/15   9:00   12.4   12.6   12.4    56    3.9  16.0   WNW   1.33  27.0   WNW    8.8   11.7    8.1  1009.1  0.00   0.0   0.020   0.000   20.3    42    7.0   19.1   8.08 1.1865    116    1    100.0    5 
31/03/15   9:05   12.4   12.4   12.4    55    3.6  15.0   WNW   1.25  30.0     W    8.9   11.6    8.2  1009.2  0.00   0.0   0.021   0.000   20.3    42    7.0   19.1   8.08 1.1866    117    1    100.0    5 
31/03/15   9:10   12.5   12.5   12.4    54    3.4  17.0   WNW   1.42  36.0   WNW    8.7   11.7    7.9  1009.4  0.00   0.0   0.020   0.000   20.3    42    7.0   19.1   8.08 1.1869    117    1    100.0    5 
31/03/15   9:15   12.6   12.7   12.5    55    3.8  17.0   WNW   1.42  30.0   WNW    8.8   11.8    8.0  1009.5  0.00   0.0   0.020   0.000   20.4    42    7.0   19.2   8.08 1.1867    117    1    100.0    5 
31/03/15   9:20   12.7   12.7   12.6    54    3.6  17.0   WNW   1.42  32.0   WNW    8.9   11.8    8.1  1009.7  0.00   0.0   0.020   0.000   20.4    42    7.0   19.2   8.08 1.1870    117    1    100.0    5 
31/03/15   9:25   12.9   12.9   12.7    52    3.3  19.0    NW   1.58  37.0   WNW    8.8   11.9    7.9  1009.7  0.00   0.0   0.019   0.000   20.4    42    7.0   19.2   8.08 1.1870    117    1    100.0    5 
31/03/15   9:30   13.1   13.1   12.9    49    2.6  19.0   WNW   1.58  31.0    NW    9.1   12.1    8.1  1009.9  0.00   0.0   0.018   0.000   20.4    42    7.1   19.2   8.07 1.1869    117    1    100.0    5 
31/03/15   9:35   13.1   13.2   13.1    52    3.5  19.0   WNW   1.58  34.0     W    9.1   12.2    8.2  1010.0  0.00   0.0   0.018   0.000   20.4    42    7.1   19.2   8.07 1.1870    116    1    100.0    5 
31/03/15   9:40   12.9   13.1   12.9    48    2.2  21.0   WNW   1.75  36.0     W    8.7   11.9    7.6  1010.1  0.00   0.0   0.019   0.000   20.5    42    7.1   19.3   8.07 1.1870    118    1    100.0    5 
31/03/15   9:45   13.2   13.2   12.9    49    2.7  18.0   WNW   1.50  31.0    NW    9.3   12.1    8.3  1010.2  0.00   0.0   0.018   0.000   20.5    42    7.1   19.3   8.07 1.1871    116    1    100.0    5 
31/03/15   9:50   13.2   13.2   13.2    50    3.0  18.0    NW   1.50  32.0    NW    9.3   12.1    8.3  1010.2  0.00   0.0   0.018   0.000   20.5    42    7.1   19.3   8.07 1.1871    117    1    100.0    5 
31/03/15   9:55   13.2   13.2   13.2    44    1.2  19.0   WNW   1.58  38.0   WNW    9.3   12.0    8.1  1010.3  0.00   0.0   0.018   0.000   20.6    42    7.2   19.3   8.07 1.1869    116    1    100.0    5 
31/03/15  10:00   13.3   13.3   13.2    45    1.6  21.0   WNW   1.75  35.0    NW    9.1   12.1    7.8  1010.3  0.00   0.0   0.018   0.000   20.6    42    7.2   19.4   8.07 1.1867    117    1    100.0    5 
31/03/15  10:05   13.4   13.4   13.3    45    1.7  17.0   WNW   1.42  33.0   WNW    9.8   12.2    8.6  1010.3  0.00   0.0   0.017   0.000   20.6    42    7.2   19.4   8.07 1.1867    117    1    100.0    5 
31/03/15  10:10   13.4   13.4   13.3    46    2.0  19.0   WNW   1.58  31.0   WNW    9.4   12.2    8.3  1010.5  0.00   0.0   0.017   0.000   20.6    42    7.2   19.4   8.07 1.1869    117    1    100.0    5 
31/03/15  10:15   13.5   13.5   13.4    47    2.4  16.0     W   1.33  31.0     W   10.0   12.3    8.8  1010.4  0.00   0.0   0.017   0.000   20.7    42    7.3   19.4   8.07 1.1865    117    1    100.0    5 
31/03/15  10:20   13.8   13.8   13.5    46    2.3  15.0   WNW   1.25  26.0   WNW   10.5   12.6    9.3  1010.6  0.00   0.0   0.016   0.000   20.7    42    7.3   19.4   8.07 1.1867    117    1    100.0    5 
31/03/15  10:25   13.4   13.8   13.4    47    2.3  17.0     W   1.42  29.0   WNW    9.8   12.3    8.6  1010.7  0.00   0.0   0.017   0.000   20.7    42    7.3   19.4   8.06 1.1866    116    1    100.0    5 
31/03/15  10:30   13.4   13.4   13.3    47    2.3  18.0   WNW   1.50  26.0     W    9.6   12.2    8.4  1010.8  0.00   0.0   0.017   0.000   20.8    42    7.4   19.5   8.06 1.1865    117    1    100.0    5 
31/03/15  10:35   13.6   13.6   13.4    46    2.2  15.0     W   1.25  28.0   WNW   10.3   12.4    9.2  1010.9  0.00   0.0   0.016   0.000   20.8    42    7.4   19.5   8.06 1.1866    116    1    100.0    5 
31/03/15  10:40   13.9   13.9   13.6    45    2.1  15.0   WNW   1.25  25.0   WNW   10.6   12.7    9.4  1011.0  0.00   0.0   0.015   0.000   20.8    42    7.4   19.5   8.06 1.1864    116    1    100.0    5 
31/03/15  10:45   14.0   14.1   13.9    44    1.9  16.0   WNW   1.33  31.0   WNW   10.6   12.7    9.3  1011.1  0.00   0.0   0.015   0.000   20.8    42    7.4   19.5   8.06 1.1865    117    1    100.0    5 
31/03/15  10:50   13.8   14.0   13.8    45    2.0  17.0     W   1.42  28.0     W   10.2   12.6    8.9  1011.0  0.00   0.0   0.016   0.000   20.8    42    7.4   19.5   8.06 1.1864    116    1    100.0    5 
31/03/15  10:55   13.9   14.0   13.8    42    1.2  17.0     W   1.42  28.0   WNW   10.3   12.6    9.0  1011.1  0.00   0.0   0.015   0.000   20.9    42    7.5   19.6   8.06 1.1863    117    1    100.0    5 
31/03/15  11:00   13.9   14.0   13.9    43    1.6  17.0   WNW   1.42  28.0   WNW   10.3   12.7    9.1  1011.3  0.00   0.0   0.015   0.000   20.9    42    7.5   19.6   8.06 1.1862    116    1    100.0    5 
31/03/15  11:05   14.1   14.1   13.9    44    2.0  17.0   WNW   1.42  30.0     W   10.5   12.8    9.2  1011.3  0.00   0.0   0.015   0.000   20.9    41    7.2   19.6   7.95 1.1866    117    1    100.0    5 
31/03/15  11:10   13.9   14.1   13.9    44    1.8  21.0   WNW   1.75  34.0   WNW    9.8   12.6    8.5  1011.5  0.00   0.0   0.015   0.000   21.0    42    7.6   19.7   8.05 1.1862    117    1    100.0    5 
31/03/15  11:15   13.8   13.9   13.8    44    1.7  18.0     W   1.50  29.0     W   10.1   12.5    8.8  1011.6  0.00   0.0   0.016   0.000   21.0    41    7.2   19.6   7.95 1.1866    116    1    100.0    5 
31/03/15  11:20   14.2   14.2   13.8    44    2.1  17.0   WNW   1.42  29.0   WNW   10.6   12.9    9.3  1011.7  0.00   0.0   0.014   0.000   21.1    41    7.3   19.6   7.95 1.1864    117    1    100.0    5 
31/03/15  11:25   14.4   14.5   14.2    42    1.6  17.0   WNW   1.42  29.0   WNW   10.9   13.0    9.5  1011.8  0.00   0.0   0.014   0.000   21.1    41    7.3   19.7   7.95 1.1863    117    1    100.0    5 
31/03/15  11:30   14.2   14.4   14.1    42    1.4  20.0   WNW   1.67  31.0   WNW   10.2   12.8    8.8  1011.8  0.00   0.0   0.014   0.000   21.1    41    7.3   19.7   7.95 1.1863    117    1    100.0    5 
31/03/15  11:35   14.2   14.2   14.2    40    0.7  19.0     W   1.58  33.0     W   10.3   12.8    8.9  1011.9  0.00   0.0   0.014   0.000   21.2    41    7.4   19.7   7.95 1.1861    117    1    100.0    5 
31/03/15  11:40   14.2   14.2   14.1    40    0.7  19.0     W   1.58  34.0     W   10.3   12.8    8.9  1012.1  0.00   0.0   0.014   0.000   21.2    41    7.4   19.8   7.94 1.1861    116    1    100.0    5 
31/03/15  11:45   14.2   14.2   14.1    41    1.1  20.0     W   1.67  32.0   WNW   10.2   12.8    8.8  1012.1  0.00   0.0   0.014   0.000   21.2    41    7.4   19.8   7.94 1.1861    118    1    100.0    5 
31/03/15  11:50   14.2   14.2   14.1    42    1.4  16.0   WNW   1.33  30.0   WNW   10.8   12.8    9.4  1012.1  0.00   0.0   0.014   0.000   21.3    41    7.5   19.9   7.94 1.1858    117    1    100.0    5 
31/03/15  11:55   13.9   14.2   13.9    44    1.9  18.0     W   1.50  28.0     W   10.2   12.7    8.9  1012.1  0.00   0.0   0.015   0.000   21.3    41    7.5   19.9   7.93 1.1856    117    1    100.0    5 
31/03/15  12:00   13.8   13.9   13.8    43    1.5  21.0     W   1.75  31.0    NW    9.7   12.6    8.4  1012.3  0.00   0.0   0.016   0.000   21.4    41    7.6   20.1   7.93 1.1855    117    1    100.0    5 
31/03/15  12:05   14.3   14.3   13.8    42    1.5  15.0     W   1.25  26.0     W   11.1   12.9    9.7  1012.3  0.00   0.0   0.014   0.000   21.4    41    7.6   20.1   7.93 1.1855    117    1    100.0    5 
31/03/15  12:10   14.3   14.4   14.3    40    0.8  16.0     W   1.33  30.0     W   10.9   12.8    9.4  1012.3  0.00   0.0   0.014   0.000   21.4    41    7.6   20.1   7.93 1.1854    117    1    100.0    5 
31/03/15  12:15   14.1   14.3   14.1    41    1.0  18.0   WNW   1.50  32.0   WNW   10.4   12.7    9.0  1012.5  0.00   0.0   0.015   0.000   21.5    41    7.7   20.2   7.92 1.1853    117    1    100.0    5 
31/03/15  12:20   14.0   14.2   13.9    44    1.9  17.0     W   1.42  26.0     W   10.4   12.7    9.1  1012.6  0.00   0.0   0.015   0.000   21.6    41    7.7   20.2   7.92 1.1851    116    1    100.0    5 
31/03/15  12:25   13.9   14.0   13.9    46    2.5  17.0     W   1.42  28.0     W   10.3   12.8    9.2  1012.5  0.00   0.0   0.015   0.000   21.6    41    7.8   20.3   7.91 1.1848    117    1    100.0    5 
31/03/15  12:30   13.9   13.9   13.9    45    2.2  17.0     W   1.42  31.0     W   10.3   12.7    9.1  1012.4  0.00   0.0   0.015   0.000   21.6    41    7.8   20.3   7.91 1.1847    116    1    100.0    5 
31/03/15  12:35   13.9   14.0   13.9    44    1.9  15.0     W   1.25  29.0     W   10.7   12.7    9.4  1012.4  0.00   0.0   0.015   0.000   21.7    40    7.5   20.3   7.73 1.1847    117    1    100.0    5 
31/03/15  12:40   13.9   13.9   13.9    45    2.1  19.0   WNW   1.58  30.0     W   10.0   12.7    8.8  1012.6  0.00   0.0   0.015   0.000   21.7    40    7.5   20.4   7.73 1.1847    117    1    100.0    5 
31/03/15  12:45   13.9   13.9   13.8    46    2.4  18.0     W   1.50  31.0   WNW   10.2   12.7    9.0  1012.4  0.00   0.0   0.015   0.000   21.8    40    7.6   20.5   7.73 1.1842    117    1    100.0    5 
31/03/15  12:50   14.1   14.1   13.9    45    2.3  17.0   WNW   1.42  29.0   WNW   10.6   12.9    9.3  1012.4  0.00   0.0   0.015   0.000   21.8    40    7.6   20.5   7.73 1.1842    118    1    100.0    5 
31/03/15  12:55   14.0   14.2   14.0    45    2.2  18.0     W   1.50  35.0     W   10.3   12.8    9.1  1012.5  0.00   0.0   0.015   0.000   21.9    40    7.7   20.7   7.72 1.1837    116    1    100.0    5 
31/03/15  13:00   14.2   14.2   14.0    45    2.4  18.0     W   1.50  34.0     W   10.4   12.9    9.2  1012.7  0.00   0.0   0.014   0.000   21.9    41    8.1   20.8   7.89 1.1834    117    1    100.0    5 
31/03/15  13:05   14.0   14.2   14.0    46    2.6  18.0     W   1.50  29.0     W   10.3   12.8    9.1  1012.7  0.00   0.0   0.015   0.000   22.0    41    8.1   20.9   7.89 1.1831    117    1    100.0    5 
31/03/15  13:10   14.1   14.1   14.0    44    2.0  19.0   WNW   1.58  32.0     W   10.2   12.8    8.9  1012.7  0.00   0.0   0.015   0.000   22.1    41    8.2   20.9   7.88 1.1829    117    1    100.0    5 
31/03/15  13:15   14.1   14.2   14.1    45    2.3  19.0     W   1.58  31.0   WNW   10.2   12.8    9.0  1012.7  0.00   0.0   0.015   0.000   22.1    41    8.2   21.1   7.88 1.1826    117    1    100.0    5 
31/03/15  13:20   13.8   14.1   13.8    45    2.1  20.0   WNW   1.67  35.0   WNW    9.8   12.6    8.6  1012.8  0.00   0.0   0.016   0.000   22.2    41    8.3   21.2   7.87 1.1825    116    1    100.0    5 
31/03/15  13:25   14.2   14.2   13.8    46    2.7  15.0   WNW   1.25  25.0   WNW   10.9   12.9    9.7  1012.8  0.00   0.0   0.014   0.000   22.2    41    8.3   21.2   7.87 1.1822    117    1    100.0    5 
31/03/15  13:30   14.0   14.2   14.0    43    1.6  22.0   WNW   1.83  41.0     W    9.8   12.7    8.5  1012.9  0.00   0.0   0.015   0.000   22.3    41    8.4   21.4   7.86 1.1818    116    1    100.0    5 
31/03/15  13:35   13.9   13.9   13.9    44    1.8  18.0   WNW   1.50  31.0     W   10.2   12.6    8.9  1012.9  0.00   0.0   0.015   0.000   22.4    41    8.5   21.5   7.86 1.1816    117    1    100.0    5 
31/03/15  13:40   14.2   14.2   13.9    44    2.1  15.0   WNW   1.25  34.0   WNW   10.9   12.9    9.7  1012.9  0.00   0.0   0.014   0.000   22.4    41    8.5   21.6   7.85 1.1812    117    1    100.0    5 
31/03/15  13:45   13.6   14.2   13.6    45    1.8  23.0     W   1.92  33.0   WSW    9.2   12.3    7.9  1012.9  0.00   0.0   0.017   0.000   22.6    42    9.0   21.8   8.00 1.1804    115    1    100.0    5 
31/03/15  13:50   13.6   13.7   13.5    44    1.6  22.0     W   1.83  34.0   WNW    9.3   12.3    8.1  1013.1  0.00   0.0   0.016   0.000   22.6    42    9.0   21.9   8.00 1.1803    117    1    100.0    5 
31/03/15  13:55   13.6   13.7   13.6    44    1.6  20.0     W   1.67  32.0     W    9.6   12.3    8.3  1013.1  0.00   0.0   0.016   0.000   22.7    42    9.1   22.1   7.99 1.1798    118    1    100.0    5 
31/03/15  14:00   13.6   13.6   13.6    45    1.8  20.0     W   1.67  33.0   WNW    9.5   12.3    8.3  1013.1  0.00   0.0   0.017   0.000   22.8    42    9.2   22.2   7.99 1.1795    117    1    100.0    5 
31/03/15  14:05   13.3   13.6   13.3    45    1.6  23.0     W   1.92  34.0   WNW    8.9   12.1    7.7  1013.0  0.00   0.0   0.017   0.000   22.8    42    9.2   22.2   7.99 1.1792    117    1    100.0    5 
31/03/15  14:10   13.2   13.3   13.2    45    1.5  23.0     W   1.92  38.0   WNW    8.8   12.0    7.6  1013.2  0.00   0.0   0.018   0.000   22.9    42    9.3   22.4   7.98 1.1788    117    1    100.0    5 
31/03/15  14:15   13.2   13.3   13.2    44    1.2  22.0   WNW   1.83  38.0     W    8.9   12.0    7.7  1013.2  0.00   0.0   0.018   0.000   23.0    41    9.0   22.4   7.81 1.1790    117    1    100.0    5 
31/03/15  14:20   13.3   13.4   13.2    44    1.3  20.0     W   1.67  30.0   WNW    9.2   12.1    7.9  1013.2  0.00   0.0   0.018   0.000   23.1    41    9.1   22.6   7.81 1.1784    117    1    100.0    5 
31/03/15  14:25   13.0   13.3   13.0    46    1.6  20.0     W   1.67  30.0   WNW    8.8   11.8    7.7  1013.2  0.00   0.0   0.019   0.000   23.2    41    9.2   22.6   7.80 1.1781    116    1    100.0    5 
31/03/15  14:30   13.3   13.3   13.0    46    1.9  17.0     W   1.42  31.0    NW    9.7   12.2    8.5  1013.2  0.00   0.0   0.017   0.000   23.3    41    9.3   22.8   7.79 1.1777    117    1    100.0    5 
31/03/15  14:35   13.2   13.4   13.2    45    1.5  17.0     W   1.42  32.0   WNW    9.6   12.0    8.3  1013.3  0.00   0.0   0.018   0.000   23.3    41    9.3   22.9   7.79 1.1774    115    1    100.0    5 
31/03/15  14:40   13.3   13.3   13.2    45    1.6  19.0   WNW   1.58  31.0   WNW    9.3   12.1    8.1  1013.4  0.00   0.0   0.018   0.000   23.4    41    9.4   23.0   7.78 1.1770    117    1    100.0    5 
31/03/15  14:45   13.3   13.3   13.3    46    1.9  19.0   WNW   1.58  36.0   WNW    9.3   12.1    8.2  1013.6  0.00   0.0   0.018   0.000   23.5    41    9.5   23.1   7.78 1.1770    117    1    100.0    5 
31/03/15  14:50   13.1   13.3   13.1    46    1.7  22.0     W   1.83  34.0     W    8.8   11.9    7.6  1013.4  0.00   0.0   0.018   0.000   23.6    41    9.5   23.1   7.77 1.1765    117    1    100.0    5 
31/03/15  14:55   13.0   13.2   13.0    47    1.9  22.0   WNW   1.83  37.0   WNW    8.6   11.9    7.5  1013.5  0.00   0.0   0.019   0.000   23.7    41    9.6   23.2   7.77 1.1761    117    1    100.0    5 
31/03/15  15:00   12.9   13.0   12.9    47    1.9  16.0     W   1.33  29.0   WNW    9.4   11.8    8.3  1013.6  0.00   0.0   0.019   0.000   23.7    41    9.7   23.3   7.76 1.1760    116    1    100.0    5 
31/03/15  15:05   12.9   13.0   12.9    47    1.8  18.0   WNW   1.50  29.0    NW    9.0   11.8    7.9  1013.8  0.00   0.0   0.019   0.000   23.8    41    9.7   23.4   7.76 1.1758    117    1    100.0    5 
31/03/15  15:10   12.8   12.8   12.7    47    1.7  18.0   WNW   1.50  32.0   WNW    8.9   11.7    7.8  1013.8  0.00   0.0   0.019   0.000   23.8    40    9.4   23.4   7.65 1.1759    117    1    100.0    5 
31/03/15  15:15   12.7   12.8   12.7    47    1.7  16.0     W   1.33  35.0   WNW    9.2   11.6    8.1  1013.8  0.00   0.0   0.019   0.000   23.9    40    9.5   23.4   7.65 1.1757    117    1    100.0    5 
31/03/15  15:20   13.1   13.1   12.8    46    1.7  18.0   WNW   1.50  36.0   WNW    9.2   11.9    8.1  1013.9  0.00   0.0   0.018   0.000   23.9    40    9.5   23.5   7.65 1.1755    117    1    100.0    5 
31/03/15  15:25   13.1   13.1   13.0    46    1.7  17.0   WNW   1.42  32.0   WNW    9.3   11.9    8.2  1013.8  0.00   0.0   0.018   0.000   24.1    40    9.6   23.6   7.64 1.1749    116    1    100.0    5 
31/03/15  15:30   12.9   13.1   12.9    46    1.6  18.0   WNW   1.50  29.0    NW    9.1   11.8    7.9  1014.0  0.00   0.0   0.019   0.000   24.1    40    9.6   23.6   7.64 1.1751    117    1    100.0    5 
31/03/15  15:35   12.6   12.9   12.6    47    1.6  21.0     W   1.75  33.0     W    8.3   11.6    7.3  1014.0  0.00   0.0   0.020   0.000   24.1    40    9.7   23.7   7.64 1.1748    117    1    100.0    5 
31/03/15  15:40   12.5   12.6   12.5    48    1.8  20.0   WNW   1.67  34.0     W    8.3   11.4    7.3  1014.1  0.00   0.0   0.020   0.000   24.2    40    9.7   23.7   7.64 1.1748    116    1    100.0    5 
31/03/15  15:45   12.5   12.5   12.4    48    1.8  16.0   WNW   1.33  25.0   WNW    8.9   11.4    7.8  1014.3  0.00   0.0   0.020   0.000   24.2    40    9.8   23.7   7.64 1.1747    117    1    100.0    5 
31/03/15  15:50   12.4   12.5   12.4    48    1.7  18.0   WNW   1.50  30.0   WNW    8.5   11.4    7.4  1014.2  0.00   0.0   0.020   0.000   24.3    39    9.4   23.8   7.54 1.1746    117    1    100.0    5 
31/03/15  15:55   12.2   12.4   12.2    50    2.0  18.0     W   1.50  27.0   WNW    8.2   11.2    7.3  1014.3  0.00   0.0   0.021   0.000   24.3    39    9.4   23.8   7.54 1.1747    117    1    100.0    5 
31/03/15  16:00   12.0   12.2   11.9    50    1.9  19.0     W   1.58  33.0     W    7.9   11.1    6.9  1014.3  0.00   0.0   0.022   0.000   24.3    39    9.5   23.8   7.53 1.1745    118    1    100.0    5 
31/03/15  16:05   12.2   12.2   12.0    51    2.3  16.0   WNW   1.33  24.0   WNW    8.5   11.3    7.6  1014.3  0.00   0.0   0.021   0.000   24.3    39    9.5   23.8   7.53 1.1746    117    1    100.0    5 
31/03/15  16:10   12.1   12.2   12.1    51    2.3  17.0   WNW   1.42  28.0     W    8.3   11.2    7.4  1014.4  0.00   0.0   0.022   0.000   24.4    39    9.5   23.8   7.53 1.1744    116    1    100.0    5 
31/03/15  16:15   11.8   12.1   11.8    52    2.3  19.0     W   1.58  35.0     W    7.7   11.0    6.8  1014.5  0.00   0.0   0.023   0.000   24.4    39    9.5   23.8   7.53 1.1745    117    1    100.0    5 
31/03/15  16:20   11.6   11.8   11.6    52    2.1  18.0     W   1.50  35.0     W    7.6   10.8    6.7  1014.5  0.00   0.0   0.023   0.000   24.4    39    9.6   23.9   7.53 1.1742    116    1    100.0    5 
31/03/15  16:25   11.6   11.7   11.6    52    2.1  13.0     W   1.08  24.0     W    8.4   10.8    7.6  1014.6  0.00   0.0   0.023   0.000   24.4    39    9.6   23.9   7.53 1.1744    117    1    100.0    5 
31/03/15  16:30   11.6   11.6   11.6    51    1.8  15.0     W   1.25  25.0     W    8.0   10.7    7.2  1014.6  0.00   0.0   0.024   0.000   24.4    39    9.6   23.9   7.53 1.1743    116    1    100.0    5 
31/03/15  16:35   11.4   11.6   11.3    52    1.9  16.0     W   1.33  28.0   WSW    7.7   10.6    6.8  1014.7  0.00   0.0   0.024   0.000   24.5    38    9.2   23.9   7.33 1.1746    116    1    100.0    5 
31/03/15  16:40   11.3   11.4   11.2    52    1.8  15.0   WNW   1.25  26.0   WNW    7.7   10.5    6.9  1014.8  0.00   0.0   0.024   0.000   24.5    38    9.2   23.9   7.33 1.1747    116    1    100.0    5 
31/03/15  16:45   11.1   11.2   11.1    53    1.9  14.0     W   1.17  22.0     W    7.7   10.4    6.9  1015.0  0.00   0.0   0.025   0.000   24.5    38    9.2   23.9   7.33 1.1750    117    1    100.0    5 
31/03/15  16:50   11.0   11.1   11.0    54    2.0  14.0     W   1.17  27.0     W    7.6   10.3    6.9  1015.0  0.00   0.0   0.025   0.000   24.6    38    9.3   24.0   7.33 1.1747    115    1    100.0    5 
31/03/15  16:55   10.9   11.0   10.9    55    2.2  15.0     W   1.25  24.0     W    7.3   10.3    6.6  1015.3  0.00   0.0   0.026   0.000   24.6    38    9.3   24.0   7.33 1.1750    115    1    100.0    5 
31/03/15  17:00   10.8   10.9   10.8    56    2.3  16.0   WNW   1.33  25.0   WNW    6.9   10.2    6.3  1015.3  0.00   0.0   0.026   0.000   24.6    38    9.3   24.0   7.33 1.1750    116    1    100.0    5 
31/03/15  17:05   10.6   10.8   10.6    57    2.4  17.0     W   1.42  28.0   WNW    6.6   10.1    6.0  1015.3  0.00   0.0   0.027   0.000   24.6    38    9.3   24.0   7.33 1.1750    118    1    100.0    5 
31/03/15  17:10   10.5   10.6   10.5    57    2.3  14.0     W   1.17  27.0   WNW    7.0    9.9    6.4  1015.4  0.00   0.0   0.027   0.000   24.6    38    9.3   24.0   7.33 1.1751    116    1    100.0    5 
31/03/15  17:15   10.4   10.5   10.4    58    2.5  12.0     W   1.00  22.0     W    7.3    9.9    6.8  1015.4  0.00   0.0   0.027   0.000   24.6    37    8.9   24.0   7.23 1.1755    117    1    100.0    5 
31/03/15  17:20   10.3   10.4   10.3    58    2.4  13.0     W   1.08  25.0     W    6.9    9.8    6.4  1015.4  0.00   0.0   0.028   0.000   24.6    37    8.9   24.0   7.23 1.1755    116    1    100.0    5 
31/03/15  17:25   10.2   10.3   10.2    58    2.3  16.0     W   1.33  27.0     W    6.2    9.7    5.7  1015.5  0.00   0.0   0.028   0.000   24.6    37    8.9   24.0   7.23 1.1756    117    1    100.0    5 
31/03/15  17:30   10.1   10.2   10.1    58    2.2  15.0     W   1.25  27.0     W    6.3    9.6    5.8  1015.6  0.00   0.0   0.029   0.000   24.6    37    8.9   24.0   7.23 1.1757    115    1    100.0    5 
31/03/15  17:35   10.0   10.1   10.0    58    2.1  18.0     W   1.50  29.0   WNW    5.7    9.5    5.2  1015.8  0.00   0.0   0.029   0.000   24.6    37    8.9   24.0   7.23 1.1759    115    1    100.0    5 
31/03/15  17:40    9.9   10.0    9.9    59    2.3  14.0   WNW   1.17  23.0     W    6.3    9.5    5.9  1015.8  0.00   0.0   0.029   0.000   24.5    37    8.8   23.9   7.23 1.1762    112    1     98.2    5 
31/03/15  17:45    9.8    9.9    9.8    60    2.4  14.0     W   1.17  24.0     W    6.2    9.3    5.7  1015.9  0.00   0.0   0.030   0.000   24.5    37    8.8   23.9   7.23 1.1763    116    1    100.0    5 
31/03/15  17:50    9.7    9.8    9.7    61    2.6  13.0     W   1.08  22.0     W    6.3    9.3    5.8  1016.0  0.00   0.0   0.030   0.000   24.6    37    8.9   24.0   7.23 1.1762    116    1    100.0    5 
31/03/15  17:55    9.6    9.7    9.6    61    2.5  12.0     W   1.00  19.0     W    6.4    9.2    5.9  1016.1  0.00   0.0   0.030   0.000   24.5    37    8.8   23.9   7.23 1.1765    117    1    100.0    5 
31/03/15  18:00    9.6    9.6    9.6    62    2.6  14.0     W   1.17  23.0     W    5.9    9.2    5.5  1016.2  0.00   0.0   0.030   0.000   24.5    37    8.8   23.9   7.23 1.1767    116    1    100.0    5 
31/03/15  18:05    9.4    9.6    9.4    62    2.5  11.0     W   0.92  17.0   WSW    6.4    9.1    6.1  1016.2  0.00   0.0   0.031   0.000   24.5    37    8.8   23.9   7.23 1.1767    117    1    100.0    5 
31/03/15  18:10    9.4    9.4    9.4    62    2.5  13.0     W   1.08  22.0     W    5.9    9.0    5.5  1016.3  0.00   0.0   0.031   0.000   24.5    37    8.8   23.9   7.23 1.1768    117    1    100.0    5 
31/03/15  18:15    9.3    9.4    9.3    62    2.4  12.0     W   1.00  18.0     W    6.1    8.9    5.7  1016.4  0.00   0.0   0.031   0.000   24.4    37    8.8   23.8   7.23 1.1772    116    1    100.0    5 
31/03/15  18:20    9.3    9.3    9.3    62    2.4  13.0     W   1.08  23.0     W    5.8    8.9    5.4  1016.4  0.00   0.0   0.031   0.000   24.4    37    8.8   23.8   7.23 1.1771    117    1    100.0    5 
31/03/15  18:25    9.3    9.3    9.3    63    2.6  14.0     W   1.17  29.0   WNW    5.6    8.9    5.2  1016.5  0.00   0.0   0.031   0.000   24.4    36    8.4   23.8   7.03 1.1776    117    1    100.0    5 
31/03/15  18:30    9.2    9.3    9.2    63    2.5  13.0   WNW   1.08  23.0     W    5.7    8.8    5.3  1016.5  0.00   0.0   0.032   0.000   24.4    36    8.4   23.8   7.03 1.1776    117    1    100.0    5 
31/03/15  18:35    9.2    9.2    9.2    64    2.7  16.0   WNW   1.33  32.0   WNW    5.1    8.8    4.7  1016.5  0.00   0.0   0.032   0.000   24.4    36    8.3   23.8   7.03 1.1779    114    1    100.0    5 
31/03/15  18:40    9.1    9.2    9.1    64    2.6  15.0   WNW   1.25  27.0     W    5.2    8.7    4.8  1016.6  0.00   0.0   0.032   0.000   24.4    36    8.3   23.8   7.03 1.1781    117    1    100.0    5 
31/03/15  18:45    9.0    9.1    9.0    65    2.8  15.0     W   1.25  27.0     W    5.1    8.6    4.7  1016.8  0.00   0.0   0.032   0.000   24.3    36    8.3   23.7   7.03 1.1785    117    1    100.0    5 
31/03/15  18:50    8.9    9.0    8.9    66    2.9  14.0     W   1.17  26.0     W    5.2    8.6    4.8  1016.9  0.00   0.0   0.033   0.000   24.3    36    8.3   23.7   7.03 1.1787    117    1    100.0    5 
31/03/15  18:55    8.8    8.9    8.8    66    2.8  14.0     W   1.17  26.0   WNW    5.1    8.4    4.7  1016.8  0.00   0.0   0.033   0.000   24.3    36    8.3   23.7   7.03 1.1786    114    1    100.0    5 
31/03/15  19:00    8.8    8.8    8.8    67    3.0  16.0     W   1.33  27.0     W    4.7    8.4    4.3  1017.1  0.00   0.0   0.033   0.000   24.3    36    8.2   23.7   7.04 1.1791    117    1    100.0    5 
31/03/15  19:05    8.7    8.8    8.7    67    2.9  15.0     W   1.25  22.0   WNW    4.8    8.4    4.4  1017.2  0.00   0.0   0.033   0.000   24.3    36    8.2   23.7   7.04 1.1792    115    1    100.0    5 
31/03/15  19:10    8.7    8.7    8.7    68    3.1  14.0     W   1.17  22.0     W    4.9    8.3    4.6  1017.2  0.00   0.0   0.034   0.000   24.2    36    8.2   23.6   7.04 1.1796    118    1    100.0    5 
31/03/15  19:15    8.6    8.7    8.6    68    3.0  14.0     W   1.17  29.0    NW    4.8    8.3    4.5  1017.3  0.00   0.0   0.034   0.000   24.2    36    8.2   23.6   7.04 1.1796    117    1    100.0    5 
31/03/15  19:20    8.6    8.6    8.6    68    3.0  13.0     W   1.08  28.0     W    4.9    8.2    4.6  1017.4  0.00   0.0   0.034   0.000   24.2    36    8.2   23.6   7.04 1.1797    116    1    100.0    5 
31/03/15  19:25    8.5    8.6    8.5    68    2.9  11.0     W   0.92  23.0     W    5.4    8.2    5.1  1017.4  0.00   0.0   0.034   0.000   24.2    36    8.1   23.6   7.04 1.1801    117    1    100.0    5 
31/03/15  19:30    8.5    8.5    8.5    68    2.9  15.0     W   1.25  24.0   WNW    4.5    8.2    4.2  1017.5  0.00   0.0   0.034   0.000   24.1    36    8.1   23.5   7.04 1.1804    116    1    100.0    5 
31/03/15  19:35    8.4    8.5    8.4    68    2.9  13.0     W   1.08  23.0   WNW    4.8    8.1    4.5  1017.6  0.00   0.0   0.034   0.000   24.1    36    8.1   23.5   7.04 1.1805    117    1    100.0    5 
31/03/15  19:40    8.4    8.5    8.4    68    2.8  13.0     W   1.08  22.0     W    4.8    8.1    4.4  1017.7  0.00   0.0   0.035   0.000   24.1    36    8.1   23.5   7.04 1.1806    117    1    100.0    5 
31/03/15  19:45    8.3    8.4    8.3    68    2.7  14.0     W   1.17  22.0   WSW    4.4    7.9    4.1  1017.8  0.00   0.0   0.035   0.000   24.1    36    8.1   23.4   7.04 1.1810    115    1    100.0    5 
31/03/15  19:50    8.1    8.3    8.1    70    2.9  15.0     W   1.25  28.0   WNW    4.0    7.8    3.7  1017.8  0.00   0.0   0.036   0.000   24.1    37    8.5   23.4   7.24 1.1807    115    1    100.0    5 
31/03/15  19:55    7.9    8.1    7.9    71    3.0  15.0     W   1.25  25.0     W    3.8    7.6    3.5  1017.8  0.00   0.0   0.036   0.000   24.1    37    8.5   23.4   7.24 1.1807    116    1    100.0    5 
31/03/15  20:00    7.8    7.9    7.8    72    3.0  12.0     W   1.00  19.0   WNW    4.3    7.5    4.0  1018.0  0.00   0.0   0.037   0.000   24.1    37    8.5   23.4   7.24 1.1809    117    1    100.0    5 
31/03/15  20:05    7.7    7.7    7.7    73    3.1  12.0   WNW   1.00  22.0   WSW    4.2    7.4    3.9  1018.1  0.00   0.0   0.037   0.000   24.1    37    8.5   23.4   7.24 1.1810    116    1    100.0    5 
31/03/15  20:10    7.6    7.7    7.6    73    3.0  11.0   WNW   0.92  17.0    NW    4.3    7.3    4.1  1018.3  0.00   0.0   0.037   0.000   24.1    37    8.5   23.4   7.24 1.1812    115    1    100.0    5 
31/03/15  20:15    7.5    7.6    7.5    73    3.0  10.0     W   0.83  17.0   WNW    4.5    7.3    4.3  1018.3  0.00   0.0   0.038   0.000   24.1    37    8.5   23.4   7.24 1.1812    118    1    100.0    5 
31/03/15  20:20    7.5    7.5    7.5    73    3.0  10.0   WNW   0.83  17.0   WNW    4.5    7.3    4.3  1018.5  0.00   0.0   0.038   0.000   24.1    37    8.5   23.4   7.24 1.1814    116    1    100.0    5 
31/03/15  20:25    7.5    7.5    7.5    74    3.2  10.0   WNW   0.83  17.0   WNW    4.5    7.3    4.3  1018.5  0.00   0.0   0.038   0.000   24.1    37    8.5   23.4   7.24 1.1814    116    1    100.0    5 
31/03/15  20:30    7.6    7.6    7.5    74    3.2  11.0     W   0.92  19.0   WNW    4.3    7.3    4.1  1018.6  0.00   0.0   0.037   0.000   24.1    38    8.9   23.6   7.34 1.1809    116    1    100.0    5 
31/03/15  20:35    7.6    7.6    7.6    74    3.3  11.0     W   0.92  17.0   WNW    4.3    7.4    4.1  1018.6  0.00   0.0   0.037   0.000   24.1    38    8.9   23.6   7.34 1.1810    117    1    100.0    5 
31/03/15  20:40    7.6    7.6    7.6    74    3.3  10.0     W   0.83  18.0   WSW    4.6    7.4    4.4  1018.5  0.00   0.0   0.037   0.000   24.1    38    8.9   23.6   7.34 1.1809    117    1    100.0    5 
31/03/15  20:45    7.6    7.6    7.6    74    3.2  10.0     W   0.83  16.0     W    4.6    7.3    4.3  1018.6  0.00   0.0   0.037   0.000   24.2    38    8.9   23.6   7.34 1.1807    117    1    100.0    5 
31/03/15  20:50    7.6    7.6    7.6    75    3.4   9.0     W   0.75  14.0   WNW    4.8    7.3    4.6  1018.6  0.00   0.0   0.037   0.000   24.2    38    8.9   23.6   7.34 1.1807    116    1    100.0    5 
31/03/15  20:55    7.6    7.6    7.6    75    3.5  10.0   WNW   0.83  18.0   WNW    4.6    7.4    4.4  1018.8  0.00   0.0   0.037   0.000   24.2    38    9.0   23.7   7.34 1.1806    116    1    100.0    5 
31/03/15  21:00    7.6    7.6    7.6    76    3.6  11.0   WNW   0.92  22.0   WNW    4.3    7.3    4.1  1018.7  0.00   0.0   0.037   0.000   24.2    38    9.0   23.7   7.34 1.1806    116    1    100.0    5 
31/03/15  21:05    7.4    7.6    7.4    75    3.3  14.0   WNW   1.17  24.0   WNW    3.5    7.2    3.3  1018.9  0.00   0.0   0.038   0.000   24.3    38    9.0   23.7   7.34 1.1806    117    1    100.0    5 
31/03/15  21:10    7.1    7.4    7.1    76    3.1  14.0   WNW   1.17  27.0     W    3.1    6.8    2.8  1019.2  0.20   0.0   0.039   0.000   24.3    38    9.0   23.7   7.34 1.1809    117    1    100.0    5 
31/03/15  21:15    6.8    7.1    6.8    78    3.3  11.0   WNW   0.92  21.0   WNW    3.4    6.7    3.3  1019.3  0.00   0.0   0.040   0.000   24.3    38    9.1   23.8   7.33 1.1807    117    1    100.0    5 
31/03/15  21:20    6.6    6.8    6.6    80    3.4  13.0   WNW   1.08  23.0    NW    2.7    6.4    2.6  1019.4  0.00   0.0   0.041   0.000   24.3    38    9.1   23.8   7.33 1.1808    116    1    100.0    5 
31/03/15  21:25    6.2    6.6    6.2    81    3.2  11.0     W   0.92  19.0   WNW    2.7    6.1    2.6  1019.4  0.20   0.8   0.042   0.000   24.4    38    9.1   23.8   7.33 1.1806    116    1    100.0    5 
31/03/15  21:30    6.0    6.2    6.0    82    3.2   9.0   WNW   0.75  17.0    NW    3.0    5.9    2.9  1019.3  0.00   0.8   0.043   0.000   24.4    38    9.1   23.8   7.33 1.1805    116    1    100.0    5 
31/03/15  21:35    5.9    6.0    5.9    83    3.3   8.0   WNW   0.67  15.0   WNW    3.2    5.8    3.1  1019.4  0.00   0.8   0.043   0.000   24.4    38    9.2   23.9   7.33 1.1804    116    1    100.0    5 
31/03/15  21:40    5.9    5.9    5.9    83    3.3   8.0   WNW   0.67  13.0   WNW    3.2    5.8    3.1  1019.4  0.00   0.0   0.043   0.000   24.4    38    9.2   23.9   7.33 1.1804    117    1    100.0    5 
31/03/15  21:45    5.9    5.9    5.9    83    3.3   7.0    NW   0.58  13.0     W    3.6    5.8    3.4  1019.5  0.00   0.0   0.043   0.000   24.4    38    9.2   23.9   7.33 1.1805    117    1    100.0    5 
31/03/15  21:50    6.0    6.0    5.9    84    3.5   7.0   WNW   0.58  11.0   WNW    3.6    5.9    3.5  1019.6  0.00   0.0   0.043   0.000   24.4    38    9.2   23.9   7.33 1.1805    116    1    100.0    5 
31/03/15  21:55    5.9    6.0    5.9    84    3.4   7.0   WNW   0.58  11.0   WNW    3.6    5.8    3.4  1019.7  0.00   0.0   0.043   0.000   24.5    38    9.2   23.9   7.33 1.1805    117    1    100.0    5 
31/03/15  22:00    5.9    6.0    5.9    84    3.4   8.0   WNW   0.67  14.0   WNW    3.2    5.8    3.1  1019.8  0.00   0.0   0.043   0.000   24.5    38    9.2   23.9   7.33 1.1805    116    1    100.0    5 
31/03/15  22:05    5.9    5.9    5.8    83    3.2  10.0   WNW   0.83  24.0    NW    2.6    5.8    2.5  1019.8  0.00   0.0   0.043   0.000   24.5    38    9.2   23.9   7.33 1.1806    117    1    100.0    5 
31/03/15  22:10    5.9    5.9    5.8    82    3.0   9.0   WNW   0.75  19.0   WNW    2.9    5.8    2.8  1019.8  0.00   0.0   0.043   0.000   24.6    38    9.3   24.0   7.33 1.1803    117    1    100.0    5 
31/03/15  22:15    5.9    5.9    5.9    82    3.1   9.0   WNW   0.75  17.0    NW    2.9    5.8    2.8  1019.7  0.00   0.0   0.043   0.000   24.6    38    9.3   24.0   7.33 1.1802    117    1    100.0    5 
31/03/15  22:20    5.9    5.9    5.9    81    2.9   9.0   WNW   0.75  15.0     W    2.9    5.8    2.8  1019.9  0.00   0.0   0.043   0.000   24.6    38    9.3   24.0   7.33 1.1804    116    1    100.0    5 
31/03/15  22:25    5.9    5.9    5.9    81    2.9   8.0   WNW   0.67  13.0   WNW    3.2    5.7    3.0  1019.9  0.00   0.0   0.043   0.000   24.6    38    9.3   24.0   7.33 1.1804    115    1    100.0    5 
31/03/15  22:30    5.8    5.9    5.8    81    2.8   8.0     W   0.67  14.0   WNW    3.1    5.7    2.9  1019.9  0.00   0.0   0.043   0.000   24.6    38    9.3   24.0   7.33 1.1804    116    1    100.0    5 
31/03/15  22:35    5.8    5.8    5.8    81    2.8   9.0     W   0.75  16.0   WNW    2.7    5.6    2.6  1020.0  0.00   0.0   0.044   0.000   24.6    38    9.3   24.0   7.33 1.1805    117    1    100.0    5 
31/03/15  22:40    5.7    5.8    5.7    81    2.7   9.0   WNW   0.75  13.0   WNW    2.7    5.6    2.5  1020.2  0.00   0.0   0.044   0.000   24.6    37    8.9   24.0   7.23 1.1810    117    1    100.0    5 
31/03/15  22:45    5.8    5.8    5.7    81    2.8  10.0     W   0.83  14.0     W    2.4    5.6    2.3  1020.2  0.00   0.0   0.044   0.000   24.6    37    8.9   24.0   7.23 1.1811    116    1    100.0    5 
31/03/15  22:50    5.8    5.8    5.7    80    2.6  10.0   WNW   0.83  15.0   WNW    2.4    5.6    2.3  1020.2  0.00   0.0   0.044   0.000   24.6    37    8.9   24.0   7.23 1.1811    116    1    100.0    5 
31/03/15  22:55    5.8    5.8    5.8    79    2.4  10.0   WNW   0.83  17.0     W    2.4    5.6    2.3  1020.2  0.00   0.0   0.044   0.000   24.6    37    8.9   24.0   7.23 1.1811    116    1    100.0    5 
31/03/15  23:00    5.8    5.8    5.8    78    2.2   9.0   WNW   0.75  14.0   WNW    2.7    5.6    2.6  1020.3  0.00   0.0   0.044   0.000   24.6    37    8.9   24.0   7.23 1.1812    117    1    100.0    5 
31/03/15  23:05    5.8    5.8    5.8    78    2.2   8.0   WNW   0.67  14.0     W    3.1    5.6    2.9  1020.5  0.00   0.0   0.044   0.000   24.6    37    8.9   24.0   7.23 1.1814    116    1    100.0    5 
31/03/15  23:10    5.7    5.8    5.7    78    2.2   7.0   WNW   0.58  15.0   WNW    3.3    5.6    3.1  1020.5  0.00   0.0   0.044   0.000   24.5    37    8.8   23.9   7.23 1.1817    117    1    100.0    5 
31/03/15  23:15    5.7    5.7    5.7    78    2.1   9.0   WNW   0.75  15.0   WNW    2.6    5.5    2.4  1020.5  0.00   0.0   0.044   0.000   24.5    37    8.8   23.9   7.23 1.1817    117    1    100.0    5 
31/03/15  23:20    5.7    5.7    5.7    77    1.9   8.0   WNW   0.67  14.0     W    2.9    5.4    2.7  1020.5  0.00   0.0   0.044   0.000   24.5    37    8.8   23.9   7.23 1.1817    117    1    100.0    5 
31/03/15  23:25    5.6    5.7    5.6    77    1.9   8.0   WNW   0.67  14.0     W    2.8    5.4    2.6  1020.6  0.00   0.0   0.044   0.000   24.5    37    8.8   23.9   7.23 1.1819    117    1    100.0    5 
31/03/15  23:30    5.6    5.7    5.6    77    1.9   8.0   WNW   0.67  14.0    NW    2.8    5.4    2.6  1020.6  0.00   0.0   0.044   0.000   24.4    37    8.8   23.8   7.23 1.1821    118    1    100.0    5 
31/03/15  23:35    5.6    5.6    5.6    77    1.9   9.0     W   0.75  17.0     W    2.6    5.4    2.3  1020.7  0.00   0.0   0.044   0.000   24.4    37    8.8   23.8   7.23 1.1822    117    1    100.0    5 
31/03/15  23:40    5.6    5.6    5.6    77    1.9   7.0     W   0.58  15.0   WNW    3.1    5.4    2.9  1020.7  0.00   0.0   0.044   0.000   24.4    37    8.8   23.8   7.23 1.1822    116    1    100.0    5 
31/03/15  23:45    5.6    5.6    5.6    77    1.8   8.0     W   0.67  12.0    NW    2.8    5.3    2.6  1020.9  0.00   0.0   0.044   0.000   24.4    37    8.8   23.8   7.23 1.1824    116    1    100.0    5 
31/03/15  23:50    5.5    5.6    5.5    77    1.8   8.0     W   0.67  14.0     W    2.7    5.3    2.5  1020.9  0.00   0.0   0.045   0.000   24.4    37    8.8   23.8   7.23 1.1827    115    1    100.0    5 
31/03/15  23:55    5.5    5.5    5.5    77    1.8   8.0     W   0.67  12.0   WNW    2.7    5.3    2.5  1021.0  0.00   0.0   0.045   0.000   24.4    37    8.8   23.8   7.23 1.1828    117    1    100.0    5 
 1/04/15  00:00    5.5    5.5    5.5    77    1.8   9.0     W   0.75  16.0   WNW    2.4    5.3    2.2  1021.1  0.00   0.0   0.045   0.000   24.4    37    8.8   23.8   7.23 1.1829    116    1    100.0    5 
 1/04/15   0:05    5.4    5.5    5.4    77    1.7   8.0     W   0.67  12.0     W    2.7    5.2    2.4  1021.1  0.00   0.0   0.045   0.000   24.3    36    8.3   23.7   7.03 1.1836    115    1    100.0    5 
 1/04/15   0:10    5.4    5.4    5.4    77    1.7   8.0     W   0.67  14.0     W    2.6    5.2    2.3  1021.2  0.00   0.0   0.045   0.000   24.3    36    8.2   23.7   7.04 1.1840    117    1    100.0    5 
 1/04/15   0:15    5.3    5.4    5.3    77    1.6   7.0     W   0.58  11.0   WNW    2.8    5.1    2.6  1021.4  0.00   0.0   0.045   0.000   24.3    36    8.2   23.7   7.04 1.1842    115    1    100.0    5 
 1/04/15   0:20    5.3    5.3    5.3    77    1.6   7.0     W   0.58  12.0     W    2.7    5.1    2.5  1021.4  0.00   0.0   0.045   0.000   24.2    36    8.2   23.6   7.04 1.1844    116    1    100.0    5 
 1/04/15   0:25    5.3    5.3    5.3    78    1.8   7.0     W   0.58  11.0     W    2.7    5.1    2.6  1021.5  0.00   0.0   0.045   0.000   24.2    36    8.2   23.6   7.04 1.1845    116    1    100.0    5 
 1/04/15   0:30    5.3    5.3    5.3    77    1.6  10.0     W   0.83  19.0   WNW    1.9    5.1    1.7  1021.4  0.00   0.0   0.045   0.000   24.2    36    8.1   23.6   7.04 1.1847    117    1    100.0    5 
 1/04/15   0:35    5.4    5.4    5.3    77    1.7  10.0     W   0.83  16.0     W    2.0    5.2    1.8  1021.4  0.00   0.0   0.045   0.000   24.2    36    8.1   23.6   7.04 1.1847    117    1    100.0    5 
 1/04/15   0:40    5.4    5.4    5.3    76    1.5  11.0     W   0.92  19.0     W    1.8    5.2    1.6  1021.4  0.00   0.0   0.045   0.000   24.1    36    8.1   23.5   7.04 1.1850    116    1    100.0    5 
 1/04/15   0:45    5.4    5.4    5.4    76    1.5  10.0     W   0.83  18.0   WNW    2.1    5.2    1.9  1021.5  0.00   0.0   0.045   0.000   24.1    36    8.1   23.5   7.04 1.1851    117    1    100.0    5 
 1/04/15   0:50    5.4    5.4    5.4    76    1.5  10.0     W   0.83  17.0     W    2.1    5.2    1.9  1021.5  0.00   0.0   0.045   0.000   24.1    36    8.1   23.4   7.04 1.1853    115    1    100.0    5 
 1/04/15   0:55    5.4    5.4    5.4    75    1.3   9.0     W   0.75  16.0   WSW    2.3    5.2    2.1  1021.6  0.00   0.0   0.045   0.000   24.0    36    8.0   23.4   7.05 1.1857    118    1    100.0    5 
 1/04/15   1:00    5.3    5.4    5.3    76    1.4   9.0     W   0.75  12.0     W    2.2    5.1    2.0  1021.7  0.00   0.0   0.045   0.000   24.0    36    8.0   23.4   7.05 1.1858    115    1    100.0    5 
 1/04/15   1:05    5.3    5.3    5.3    76    1.4  10.0     W   0.83  14.0   WNW    1.9    5.1    1.7  1021.7  0.00   0.0   0.045   0.000   23.9    36    8.0   23.3   7.05 1.1861    117    1    100.0    5 
 1/04/15   1:10    5.3    5.3    5.3    75    1.2  11.0     W   0.92  17.0   WNW    1.7    5.1    1.4  1021.8  0.00   0.0   0.045   0.000   23.9    36    7.9   23.3   7.05 1.1865    115    1    100.0    5 
 1/04/15   1:15    5.2    5.3    5.2    76    1.3   8.0     W   0.67  13.0     W    2.4    5.0    2.2  1021.8  0.00   0.0   0.046   0.000   23.9    36    7.9   23.3   7.05 1.1865    116    1    100.0    5 
 1/04/15   1:20    5.2    5.2    5.2    76    1.3   8.0     W   0.67  14.0     W    2.3    4.9    2.1  1021.9  0.00   0.0   0.046   0.000   23.8    36    7.9   23.2   7.05 1.1869    117    1    100.0    5 
 1/04/15   1:25    5.1    5.2    5.1    76    1.2   8.0     W   0.67  12.0     W    2.2    4.9    2.0  1021.9  0.00   0.0   0.046   0.000   23.8    36    7.9   23.2   7.05 1.1869    116    1    100.0    5 
 1/04/15   1:30    5.1    5.1    5.1    76    1.2   8.0     W   0.67  13.0     W    2.2    4.9    2.0  1022.0  0.00   0.0   0.046   0.000   23.8    36    7.8   23.2   7.06 1.1872    114    1    100.0    5 
 1/04/15   1:35    5.1    5.1    5.1    76    1.2   9.0     W   0.75  14.0   WNW    1.9    4.8    1.7  1022.0  0.00   0.0   0.046   0.000   23.8    36    7.8   23.2   7.06 1.1873    114    1    100.0    5 
 1/04/15   1:40    5.1    5.1    5.1    76    1.2   8.0     W   0.67  15.0   WNW    2.2    4.8    1.9  1022.1  0.00   0.0   0.046   0.000   23.7    36    7.8   23.1   7.06 1.1876    117    1    100.0    5 
 1/04/15   1:45    5.0    5.1    5.0    76    1.1   9.0     W   0.75  14.0   WSW    1.8    4.8    1.6  1022.1  0.00   0.0   0.046   0.000   23.7    36    7.7   23.0   7.07 1.1879    117    1    100.0    5 
 1/04/15   1:50    5.0    5.1    5.0    75    0.9   9.0     W   0.75  14.0     W    1.8    4.8    1.6  1022.1  0.00   0.0   0.046   0.000   23.7    36    7.7   23.0   7.07 1.1879    117    1    100.0    5 
 1/04/15   1:55    5.0    5.0    5.0    75    0.9  10.0     W   0.83  15.0     W    1.6    4.8    1.3  1022.1  0.00   0.0   0.046   0.000   23.6    36    7.7   22.9   7.07 1.1882    117    1    100.0    5 
 1/04/15   2:00    5.0    5.0    5.0    75    0.9  10.0     W   0.83  15.0     W    1.6    4.8    1.3  1022.3  0.00   0.0   0.046   0.000   23.6    36    7.6   22.9   7.07 1.1886    118    1    100.0    5 
 1/04/15   2:05    5.0    5.0    5.0    75    0.9   9.0     W   0.75  14.0   WNW    1.8    4.8    1.6  1022.3  0.00   0.0   0.046   0.000   23.6    36    7.6   22.9   7.07 1.1886    117    1    100.0    5 
 1/04/15   2:10    5.0    5.0    4.9    75    0.9   9.0     W   0.75  15.0     W    1.8    4.8    1.6  1022.4  0.00   0.0   0.046   0.000   23.5    36    7.6   22.8   7.08 1.1890    116    1    100.0    5 
 1/04/15   2:15    5.0    5.0    5.0    75    0.9   9.0     W   0.75  18.0     W    1.8    4.8    1.6  1022.4  0.00   0.0   0.046   0.000   23.4    36    7.5   22.8   7.08 1.1893    116    1    100.0    5 
 1/04/15   2:20    4.9    5.0    4.9    75    0.9   9.0     W   0.75  14.0   WNW    1.8    4.7    1.6  1022.5  0.00   0.0   0.046   0.000   23.4    35    7.1   22.7   6.97 1.1897    117    1    100.0    5 
 1/04/15   2:25    4.9    4.9    4.9    75    0.9  10.0     W   0.83  16.0   WNW    1.5    4.7    1.3  1022.5  0.00   0.0   0.046   0.000   23.4    35    7.1   22.7   6.97 1.1900    116    1    100.0    5 
 1/04/15   2:30    4.9    4.9    4.9    75    0.9  11.0     W   0.92  18.0     W    1.3    4.7    1.1  1022.5  0.00   0.0   0.046   0.000   23.3    35    7.0   22.6   6.97 1.1902    117    1    100.0    5 
 1/04/15   2:35    4.9    4.9    4.9    75    0.9   9.0     W   0.75  16.0     W    1.8    4.7    1.6  1022.5  0.00   0.0   0.046   0.000   23.3    35    7.0   22.6   6.97 1.1902    116    1    100.0    5 
 1/04/15   2:40    4.9    4.9    4.9    76    1.1  10.0   WNW   0.83  16.0     W    1.5    4.7    1.3  1022.5  0.00   0.0   0.046   0.000   23.3    35    7.0   22.6   6.97 1.1905    116    1    100.0    5 
 1/04/15   2:45    4.9    4.9    4.9    76    1.1  10.0     W   0.83  18.0   WNW    1.5    4.7    1.3  1022.5  0.00   0.0   0.046   0.000   23.3    35    7.0   22.6   6.97 1.1905    116    1    100.0    5 
 1/04/15   2:50    4.9    4.9    4.9    76    1.1  12.0     W   1.00  19.0   WNW    1.1    4.7    0.8  1022.5  0.00   0.0   0.046   0.000   23.2    35    6.9   22.4   6.97 1.1908    115    1    100.0    5 
 1/04/15   2:55    4.9    4.9    4.9    76    1.0  11.0     W   0.92  18.0     W    1.2    4.7    1.0  1022.5  0.00   0.0   0.047   0.000   23.2    35    6.9   22.3   6.98 1.1911    117    1    100.0    5 
 1/04/15   3:00    4.9    4.9    4.8    76    1.0  10.0     W   0.83  15.0     W    1.4    4.7    1.2  1022.6  0.00   0.0   0.047   0.000   23.1    35    6.8   22.3   6.98 1.1914    116    1    100.0    5 
 1/04/15   3:05    4.8    4.9    4.8    76    1.0  11.0     W   0.92  15.0   WNW    1.1    4.6    0.9  1022.6  0.00   0.0   0.047   0.000   23.1    35    6.8   22.3   6.98 1.1915    118    1    100.0    5 
 1/04/15   3:10    4.8    4.8    4.8    76    1.0  10.0     W   0.83  15.0     W    1.3    4.6    1.1  1022.7  0.00   0.0   0.047   0.000   23.1    35    6.8   22.2   6.98 1.1918    117    1    100.0    5 
 1/04/15   3:15    4.8    4.8    4.8    77    1.1  10.0     W   0.83  15.0     W    1.3    4.6    1.1  1022.8  0.00   0.0   0.047   0.000   23.1    35    6.8   22.2   6.98 1.1919    116    1    100.0    5 
 1/04/15   3:20    4.8    4.8    4.8    76    0.9   9.0     W   0.75  15.0     W    1.6    4.6    1.3  1022.9  0.00   0.0   0.047   0.000   23.0    35    6.7   22.1   6.98 1.1923    117    1    100.0    5 
 1/04/15   3:25    4.8    4.8    4.7    77    1.1   9.0     W   0.75  16.0     W    1.6    4.6    1.3  1022.9  0.00   0.0   0.047   0.000   22.9    35    6.7   22.1   6.98 1.1926    117    1    100.0    5 
 1/04/15   3:30    4.7    4.8    4.7    77    1.0  10.0     W   0.83  19.0     W    1.2    4.5    1.0  1022.9  0.00   0.0   0.047   0.000   22.9    35    6.6   21.9   6.99 1.1928    116    1    100.0    5 
 1/04/15   3:35    4.7    4.7    4.7    77    1.0   9.0     W   0.75  15.0     W    1.5    4.5    1.3  1023.0  0.00   0.0   0.047   0.000   22.8    35    6.6   21.8   6.99 1.1932    117    1    100.0    5 
 1/04/15   3:40    4.7    4.7    4.7    77    1.0  12.0     W   1.00  17.0     W    0.8    4.5    0.6  1023.0  0.00   0.0   0.047   0.000   22.8    35    6.6   21.8   6.99 1.1933    117    1    100.0    5 
 1/04/15   3:45    4.7    4.7    4.7    77    1.0  10.0     W   0.83  20.0     W    1.2    4.5    1.0  1023.1  0.00   0.0   0.047   0.000   22.8    35    6.5   21.8   6.99 1.1937    117    1    100.0    5 
 1/04/15   3:50    4.7    4.7    4.7    77    1.0  10.0     W   0.83  15.0     W    1.2    4.4    0.9  1023.2  0.00   0.0   0.047   0.000   22.7    35    6.5   21.7   6.99 1.1940    117    1    100.0    5 
 1/04/15   3:55    4.6    4.7    4.6    77    0.9  10.0     W   0.83  17.0     W    1.1    4.4    0.9  1023.2  0.00   0.0   0.048   0.000   22.7    35    6.5   21.7   6.99 1.1940    116    1    100.0    5 
 1/04/15   4:00    4.6    4.6    4.6    77    0.9  11.0     W   0.92  16.0     W    0.9    4.4    0.7  1023.4  0.00   0.0   0.048   0.000   22.7    35    6.4   21.6   6.99 1.1945    117    1    100.0    5 
 1/04/15   4:05    4.6    4.6    4.6    77    0.9   9.0     W   0.75  21.0     W    1.4    4.4    1.2  1023.4  0.00   0.0   0.048   0.000   22.6    35    6.4   21.5   7.00 1.1948    116    1    100.0    5 
 1/04/15   4:10    4.6    4.6    4.6    77    0.9  10.0     W   0.83  21.0     W    1.0    4.3    0.8  1023.3  0.00   0.0   0.048   0.000   22.6    35    6.4   21.5   7.00 1.1947    117    1    100.0    5 
 1/04/15   4:15    4.6    4.6    4.6    77    0.9   9.0     W   0.75  16.0     W    1.3    4.3    1.1  1023.3  0.00   0.0   0.048   0.000   22.6    35    6.3   21.4   7.00 1.1949    117    1    100.0    5 
 1/04/15   4:20    4.6    4.6    4.5    77    0.9   9.0     W   0.75  18.0     W    1.3    4.3    1.1  1023.4  0.00   0.0   0.048   0.000   22.5    35    6.3   21.3   7.00 1.1953    117    1    100.0    5 
 1/04/15   4:25    4.5    4.6    4.5    77    0.8   8.0     W   0.67  14.0   WNW    1.5    4.3    1.3  1023.5  0.00   0.0   0.048   0.000   22.5    35    6.3   21.3   7.00 1.1954    116    1    100.0    5 
 1/04/15   4:30    4.4    4.5    4.4    77    0.8   9.0     W   0.75  13.0     W    1.2    4.2    0.9  1023.5  0.00   0.0   0.048   0.000   22.4    35    6.2   21.2   7.00 1.1957    117    1    100.0    5 
 1/04/15   4:35    4.4    4.4    4.4    77    0.8   9.0     W   0.75  14.0   WNW    1.2    4.2    0.9  1023.5  0.00   0.0   0.048   0.000   22.4    35    6.2   21.2   7.00 1.1959    116    1    100.0    5 
 1/04/15   4:40    4.4    4.4    4.4    77    0.8  11.0   WNW   0.92  16.0   WNW    0.7    4.2    0.4  1023.6  0.00   0.0   0.048   0.000   22.3    35    6.1   21.1   7.01 1.1964    117    1    100.0    5 
 1/04/15   4:45    4.5    4.5    4.4    77    0.8  11.0     W   0.92  18.0     W    0.7    4.3    0.5  1023.6  0.00   0.0   0.048   0.000   22.3    35    6.1   21.1   7.01 1.1964    117    1    100.0    5 
 1/04/15   4:50    4.5    4.6    4.5    77    0.8  10.0     W   0.83  17.0     W    0.9    4.3    0.7  1023.6  0.00   0.0   0.048   0.000   22.3    35    6.1   21.0   7.01 1.1966    115    1    100.0    5 
 1/04/15   4:55    4.6    4.6    4.5    77    0.9  11.0     W   0.92  19.0     W    0.8    4.3    0.6  1023.7  0.00   0.0   0.048   0.000   22.2    35    6.0   20.9   7.01 1.1970    116    1    100.0    5 
 1/04/15   5:00    4.6    4.6    4.6    77    0.9  11.0     W   0.92  16.0     W    0.9    4.4    0.7  1024.0  0.00   0.0   0.048   0.000   22.2    35    6.0   20.9   7.01 1.1973    117    1    100.0    5 
 1/04/15   5:05    4.6    4.6    4.6    77    0.9   9.0     W   0.75  16.0     W    1.4    4.4    1.2  1024.2  0.00   0.0   0.048   0.000   22.2    35    6.0   20.8   7.01 1.1978    115    1    100.0    5 
 1/04/15   5:10    4.6    4.6    4.6    77    0.9  10.0     W   0.83  22.0   WNW    1.1    4.4    0.9  1024.3  0.00   0.0   0.048   0.000   22.1    35    5.9   20.7   7.01 1.1982    116    1    100.0    5 
 1/04/15   5:15    4.7    4.7    4.7    76    0.8  12.0     W   1.00  22.0   WNW    0.7    4.4    0.5  1024.4  0.00   0.0   0.047   0.000   22.1    35    5.9   20.7   7.01 1.1983    117    1    100.0    5 
 1/04/15   5:20    4.7    4.7    4.7    76    0.8   9.0     W   0.75  17.0     W    1.5    4.5    1.3  1024.3  0.00   0.0   0.047   0.000   22.1    35    5.9   20.7   7.02 1.1984    117    1    100.0    5 
 1/04/15   5:25    4.8    4.8    4.7    76    0.9  11.0     W   0.92  19.0     W    1.1    4.6    0.8  1024.4  0.00   0.0   0.047   0.000   22.1    35    5.9   20.7   7.02 1.1985    117    1    100.0    5 
 1/04/15   5:30    4.8    4.8    4.8    76    1.0  11.0     W   0.92  19.0   WNW    1.1    4.6    0.9  1024.4  0.00   0.0   0.047   0.000   22.0    35    5.8   20.6   7.02 1.1988    117    1    100.0    5 
 1/04/15   5:35    4.9    4.9    4.8    76    1.0  10.0     W   0.83  14.0   WSW    1.4    4.7    1.2  1024.5  0.00   0.0   0.047   0.000   21.9    35    5.8   20.5   7.02 1.1992    116    1    100.0    5 
 1/04/15   5:40    4.9    4.9    4.9    76    1.1  11.0     W   0.92  16.0     W    1.3    4.7    1.1  1024.5  0.00   0.0   0.046   0.000   21.9    35    5.7   20.4   7.02 1.1994    117    1    100.0    5 
 1/04/15   5:45    5.1    5.1    4.9    76    1.2  11.0     W   0.92  20.0     W    1.4    4.8    1.2  1024.4  0.00   0.0   0.046   0.000   21.9    35    5.7   20.4   7.02 1.1994    116    1    100.0    5 
 1/04/15   5:50    5.2    5.2    5.1    76    1.3  12.0     W   1.00  21.0     W    1.3    4.9    1.1  1024.6  0.00   0.0   0.046   0.000   21.9    35    5.7   20.4   7.02 1.1995    117    1    100.0    5 
 1/04/15   5:55    5.3    5.3    5.2    75    1.2  14.0     W   1.17  28.0     W    1.0    5.1    0.8  1024.7  0.00   0.0   0.045   0.000   21.8    35    5.7   20.3   7.02 1.2000    116    1    100.0    5 
 1/04/15   6:00    5.4    5.4    5.3    75    1.3  13.0     W   1.08  28.0     W    1.3    5.2    1.1  1024.8  0.00   0.0   0.045   0.000   21.8    35    5.7   20.3   7.02 1.2000    116    1    100.0    5 
 1/04/15   6:05    5.5    5.5    5.4    75    1.4  13.0     W   1.08  19.0     W    1.5    5.3    1.3  1024.9  0.00   0.0   0.045   0.000   21.8    35    5.6   20.3   7.03 1.2004    117    1    100.0    5 
 1/04/15   6:10    5.6    5.6    5.5    75    1.5  12.0     W   1.00  18.0     W    1.8    5.4    1.6  1024.9  0.00   0.0   0.044   0.000   21.8    35    5.6   20.3   7.03 1.2005    117    1    100.0    5 
 1/04/15   6:15    5.7    5.7    5.6    75    1.6  12.0     W   1.00  21.0     W    1.9    5.5    1.7  1025.0  0.00   0.0   0.044   0.000   21.7    35    5.6   20.2   7.03 1.2008    117    1    100.0    5 
 1/04/15   6:20    5.8    5.8    5.7    74    1.5  15.0     W   1.25  23.0     W    1.4    5.6    1.2  1025.2  0.00   0.0   0.044   0.000   21.7    35    5.6   20.2   7.03 1.2010    117    1    100.0    5 
 1/04/15   6:25    5.9    5.9    5.8    74    1.6  13.0     W   1.08  21.0     W    1.9    5.7    1.7  1025.3  0.00   0.0   0.043   0.000   21.7    35    5.5   20.1   7.03 1.2015    116    1    100.0    5 
 1/04/15   6:30    6.0    6.0    5.9    74    1.7  13.0     W   1.08  23.0   WNW    2.1    5.8    1.8  1025.3  0.00   0.0   0.043   0.000   21.7    35    5.5   20.1   7.03 1.2015    116    1    100.0    5 
 1/04/15   6:35    6.1    6.1    6.0    73    1.6  13.0     W   1.08  19.0     W    2.2    5.8    1.9  1025.3  0.00   0.0   0.042   0.000   21.7    35    5.5   20.1   7.03 1.2015    117    1    100.0    5 
 1/04/15   6:40    6.2    6.2    6.1    73    1.7  14.0     W   1.17  23.0   WNW    2.1    5.9    1.8  1025.2  0.00   0.0   0.042   0.000   21.7    35    5.5   20.1   7.03 1.2014    116    1    100.0    5 
 1/04/15   6:45    6.3    6.3    6.2    72    1.6  14.0     W   1.17  24.0   WNW    2.2    6.0    1.9  1025.2  0.00   0.0   0.042   0.000   21.6    35    5.5   20.1   7.03 1.2016    117    1    100.0    5 
 1/04/15   6:50    6.4    6.4    6.3    73    2.0  11.0     W   0.92  19.0     W    3.0    6.2    2.7  1025.3  0.00   0.0   0.041   0.000   21.6    35    5.5   20.1   7.03 1.2017    117    1    100.0    5 
 1/04/15   6:55    6.5    6.5    6.4    71    1.6  14.0     W   1.17  26.0   WNW    2.4    6.2    2.2  1025.3  0.00   0.0   0.041   0.000   21.6    35    5.5   20.1   7.03 1.2017    117    1    100.0    5 
 1/04/15   7:00    6.6    6.6    6.5    71    1.7  14.0   WNW   1.17  22.0     W    2.6    6.3    2.3  1025.3  0.00   0.0   0.041   0.000   21.6    35    5.4   19.9   7.03 1.2020    117    1    100.0    5 
 1/04/15   7:05    6.7    6.7    6.6    71    1.8  14.0     W   1.17  28.0   WNW    2.7    6.4    2.4  1025.4  0.00   0.0   0.040   0.000   21.6    35    5.4   19.9   7.03 1.2021    116    1    100.0    5 
 1/04/15   7:10    6.8    6.8    6.7    70    1.7  14.0     W   1.17  25.0     W    2.8    6.6    2.5  1025.4  0.00   0.0   0.040   0.000   21.6    35    5.4   19.9   7.03 1.2021    117    1    100.0    5 
 1/04/15   7:15    6.9    6.9    6.8    70    1.8  15.0     W   1.25  25.0   WNW    2.8    6.7    2.5  1025.3  0.00   0.0   0.040   0.000   21.6    35    5.4   19.9   7.03 1.2020    117    1    100.0    5 
 1/04/15   7:20    7.1    7.1    6.9    70    2.0  15.0     W   1.25  21.0   WSW    2.9    6.8    2.6  1025.3  0.00   0.0   0.039   0.000   21.6    35    5.4   19.9   7.03 1.2020    118    1    100.0    5 
 1/04/15   7:25    7.3    7.3    7.1    68    1.8  14.0     W   1.17  24.0     W    3.3    6.9    2.9  1025.4  0.00   0.0   0.038   0.000   21.5    35    5.4   19.9   7.04 1.2024    116    1    100.0    5 
 1/04/15   7:30    7.3    7.3    7.3    68    1.8  14.0     W   1.17  21.0   WSW    3.3    7.0    3.0  1025.4  0.00   0.0   0.038   0.000   21.5    35    5.4   19.9   7.04 1.2024    117    1    100.0    5 
 1/04/15   7:35    7.6    7.6    7.3    68    2.0  13.0     W   1.08  23.0     W    3.8    7.2    3.5  1025.4  0.00   0.0   0.037   0.000   21.5    35    5.4   19.9   7.04 1.2024    117    1    100.0    5 
 1/04/15   7:40    7.7    7.7    7.6    67    1.9  12.0     W   1.00  19.0     W    4.2    7.3    3.8  1025.4  0.00   0.0   0.037   0.000   21.5    35    5.4   19.9   7.04 1.2024    116    1    100.0    5 
 1/04/15   7:45    7.8    7.8    7.7    66    1.9  14.0     W   1.17  24.0   WNW    3.9    7.4    3.6  1025.4  0.00   0.0   0.036   0.000   21.5    35    5.4   19.9   7.04 1.2024    116    1    100.0    5 
 1/04/15   7:50    7.8    7.8    7.8    64    1.4  15.0     W   1.25  23.0     W    3.7    7.4    3.3  1025.4  0.00   0.0   0.036   0.000   21.5    35    5.4   19.9   7.04 1.2024    116    1    100.0    5 
 1/04/15   7:55    8.1    8.1    7.8    64    1.7  14.0     W   1.17  21.0   WNW    4.2    7.7    3.8  1025.5  0.00   0.0   0.036   0.000   21.5    35    5.4   19.9   7.04 1.2025    117    1    100.0    5 
 1/04/15   8:00    8.2    8.2    8.1    63    1.5  14.0     W   1.17  25.0   WNW    4.3    7.8    3.9  1025.6  0.00   0.0   0.035   0.000   21.5    35    5.4   19.9   7.04 1.2026    117    1    100.0    5 
 1/04/15   8:05    8.2    8.2    8.2    63    1.6  14.0     W   1.17  24.0     W    4.4    7.8    4.0  1025.5  0.00   0.0   0.035   0.000   21.5    35    5.4   19.9   7.04 1.2025    116    1    100.0    5 
 1/04/15   8:10    8.3    8.3    8.3    62    1.5  14.0   WNW   1.17  23.0   WNW    4.5    7.9    4.1  1025.5  0.00   0.0   0.035   0.000   21.5    35    5.4   19.9   7.04 1.2025    115    1    100.0    5 
 1/04/15   8:15    8.6    8.6    8.3    62    1.7  12.0     W   1.00  21.0     W    5.2    8.1    4.7  1025.5  0.00   0.0   0.034   0.000   21.5    35    5.4   19.9   7.04 1.2025    116    1    100.0    5 
 1/04/15   8:20    8.7    8.7    8.6    60    1.3  15.0     W   1.25  25.0     W    4.7    8.2    4.3  1025.6  0.00   0.0   0.034   0.000   21.5    35    5.4   19.9   7.04 1.2027    117    1    100.0    5 
 1/04/15   8:25    8.7    8.7    8.7    59    1.1  13.0     W   1.08  22.0     W    5.2    8.3    4.7  1025.7  0.00   0.0   0.033   0.000   21.5    35    5.4   19.9   7.04 1.2027    118    1    100.0    5 
 1/04/15   8:30    8.8    8.8    8.7    59    1.3  14.0   WNW   1.17  23.0   WNW    5.1    8.4    4.6  1025.6  0.00   0.0   0.033   0.000   21.5    35    5.4   19.9   7.04 1.2027    115    1    100.0    5 
 1/04/15   8:35    9.1    9.1    8.8    59    1.5  11.0   WNW   0.92  19.0   WNW    6.1    8.7    5.6  1025.8  0.00   0.0   0.032   0.000   21.6    36    5.8   20.0   7.22 1.2023    116    1    100.0    5 
 1/04/15   8:40    9.2    9.2    9.2    57    1.1  14.0     W   1.17  22.0   WNW    5.5    8.7    5.0  1025.7  0.00   0.0   0.032   0.000   21.6    36    5.8   20.0   7.22 1.2022    117    1    100.0    5 
 1/04/15   8:45    9.3    9.3    9.2    57    1.2  12.0     W   1.00  21.0   WNW    6.0    8.8    5.5  1025.7  0.00   0.0   0.031   0.000   21.6    36    5.8   20.0   7.22 1.2022    116    1    100.0    5 
 1/04/15   8:50    9.3    9.3    9.3    57    1.2  13.0     W   1.08  23.0     W    5.8    8.8    5.3  1025.7  0.00   0.0   0.031   0.000   21.6    36    5.8   20.0   7.22 1.2022    116    1    100.0    5 
 1/04/15   8:55    9.4    9.4    9.3    57    1.3  13.0     W   1.08  21.0     W    5.9    8.9    5.4  1025.7  0.00   0.0   0.031   0.000   21.6    36    5.8   20.0   7.22 1.2022    117    1    100.0    5 
 1/04/15   9:00    9.6    9.6    9.4    56    1.3  14.0     W   1.17  22.0     W    5.9    9.1    5.4  1025.7  0.00   0.0   0.030   0.000   21.6    36    5.8   20.0   7.22 1.2021    117    1    100.0    5 
 1/04/15   9:05    9.7    9.7    9.6    56    1.3  12.0   WNW   1.00  21.0     W    6.4    9.1    5.9  1025.6  0.00   0.0   0.030   0.000   21.6    36    5.9   20.1   7.21 1.2018    115    1    100.0    5 
 1/04/15   9:10    9.8    9.8    9.7    54    0.9  14.0   WNW   1.17  22.0   WNW    6.2    9.2    5.6  1025.6  0.00   0.0   0.030   0.000   21.6    36    5.9   20.1   7.21 1.2018    116    1    100.0    5 
 1/04/15   9:15    9.8    9.8    9.7    55    1.2  11.0   WNW   0.92  19.0     W    6.9    9.3    6.3  1025.5  0.00   0.0   0.030   0.000   21.7    36    5.9   20.2   7.21 1.2014    117    1    100.0    5 
 1/04/15   9:20    9.8    9.9    9.8    55    1.2  14.0     W   1.17  22.0     W    6.2    9.3    5.7  1025.6  0.00   0.0   0.030   0.000   21.6    36    5.9   20.1   7.21 1.2018    117    1    100.0    5 
 1/04/15   9:25    9.8    9.9    9.8    54    1.0  16.0     W   1.33  25.0     W    5.8    9.3    5.3  1025.6  0.00   0.0   0.030   0.000   21.7    36    5.9   20.2   7.21 1.2015    117    1    100.0    5 
 1/04/15   9:30   10.1   10.1    9.8    53    0.9  15.0   WNW   1.25  24.0   WNW    6.3    9.4    5.7  1025.6  0.00   0.0   0.029   0.000   21.7    36    5.9   20.2   7.21 1.2015    118    1    100.0    5 
 1/04/15   9:35   10.2   10.2   10.1    55    1.6  13.0   WNW   1.08  22.0     W    6.8    9.7    6.3  1025.6  0.00   0.0   0.028   0.000   21.7    36    6.0   20.2   7.21 1.2013    117    1    100.0    5 
 1/04/15   9:40   10.3   10.3   10.3    53    1.1  15.0     W   1.25  28.0     W    6.6    9.7    5.9  1025.6  0.00   0.0   0.028   0.000   21.7    36    5.9   20.2   7.21 1.2015    117    1    100.0    5 
 1/04/15   9:45   10.3   10.4   10.3    53    1.1  14.0     W   1.17  21.0     W    6.7    9.7    6.1  1025.5  0.00   0.0   0.028   0.000   21.7    36    6.0   20.2   7.21 1.2012    117    1    100.0    5 
 1/04/15   9:50   10.4   10.4   10.2    54    1.5  14.0     W   1.17  22.0     W    6.8    9.8    6.2  1025.5  0.00   0.0   0.028   0.000   21.8    36    6.0   20.3   7.20 1.2009    117    1    100.0    5 
 1/04/15   9:55   10.4   10.4   10.3    53    1.2  15.0   WNW   1.25  25.0   WNW    6.7    9.7    6.0  1025.6  0.00   0.0   0.028   0.000   21.8    36    6.0   20.3   7.20 1.2010    117    1    100.0    5 
 1/04/15  10:00   10.4   10.4   10.3    53    1.3  12.0   WNW   1.00  21.0    NW    7.3    9.8    6.7  1025.6  0.00   0.0   0.027   0.000   21.8    36    6.0   20.3   7.20 1.2010    116    1    100.0    5 
 1/04/15  10:05   10.5   10.5   10.4    52    1.0  14.0   WNW   1.17  23.0   WNW    7.0    9.8    6.3  1025.5  0.00   0.0   0.027   0.000   21.8    36    6.0   20.3   7.20 1.2008    117    1    100.0    5 
 1/04/15  10:10   10.7   10.8   10.6    53    1.5  13.0     W   1.08  24.0   WSW    7.4   10.1    6.8  1025.4  0.00   0.0   0.026   0.000   21.8    36    6.1   20.4   7.20 1.2004    117    1    100.0    5 
 1/04/15  10:15   10.8   10.8   10.7    53    1.6  15.0     W   1.25  25.0     W    7.2   10.2    6.5  1025.3  0.00   0.0   0.026   0.000   21.9    36    6.1   20.4   7.19 1.2001    117    1    100.0    5 
 1/04/15  10:20   10.9   11.0   10.8    52    1.5  12.0   WNW   1.00  22.0     W    7.9   10.2    7.2  1025.2  0.00   0.0   0.026   0.000   21.9    36    6.1   20.4   7.19 1.2000    117    1    100.0    5 
 1/04/15  10:25   11.1   11.1   10.9    50    1.0  12.0   WNW   1.00  24.0     W    8.1   10.2    7.2  1025.2  0.00   0.0   0.025   0.000   21.9    36    6.2   20.6   7.19 1.1997    117    1    100.0    5 
 1/04/15  10:30   10.8   11.1   10.8    50    0.8  15.0     W   1.25  23.0     W    7.1   10.0    6.3  1025.1  0.00   0.0   0.026   0.000   21.9    36    6.2   20.6   7.19 1.1996    117    1    100.0    5 
 1/04/15  10:35   10.8   10.8   10.7    53    1.6  13.0     W   1.08  25.0   WSW    7.6   10.2    6.9  1025.1  0.00   0.0   0.026   0.000   22.0    36    6.2   20.6   7.19 1.1994    118    1    100.0    5 
 1/04/15  10:40   10.8   10.9   10.7    60    3.3  15.0   WSW   1.25  21.0   WSW    7.1   10.3    6.6  1025.0  0.00   0.0   0.026   0.000   22.0    36    6.2   20.6   7.19 1.1993    116    1    100.0    5 
 1/04/15  10:45   10.9   10.9   10.8    57    2.7  15.0   WSW   1.25  21.0   WNW    7.3   10.3    6.7  1025.0  0.00   0.0   0.026   0.000   22.1    36    6.3   20.7   7.18 1.1990    116    1    100.0    5 
 1/04/15  10:50   10.6   10.9   10.6    53    1.4  14.0     W   1.17  26.0     W    7.1    9.9    6.4  1025.1  0.00   0.0   0.027   0.000   22.1    35    5.9   20.7   7.02 1.1994    117    1    100.0    5 
 1/04/15  10:55   10.4   10.7   10.4    56    2.0  15.0     W   1.25  29.0   WSW    6.7    9.9    6.2  1025.1  0.00   0.0   0.027   0.000   22.1    35    5.9   20.7   7.02 1.1994    117    1    100.0    5 
 1/04/15  11:00   10.8   10.8   10.4    53    1.6  17.0     W   1.42  26.0     W    6.8   10.1    6.1  1025.1  0.00   0.0   0.026   0.000   22.1    35    5.9   20.7   7.01 1.1991    117    1    100.0    5 
 1/04/15  11:05   11.1   11.1   10.8    51    1.3  14.0     W   1.17  25.0   WNW    7.7   10.3    6.9  1025.1  0.00   0.0   0.025   0.000   22.1    35    5.9   20.7   7.01 1.1991    116    1    100.0    5 
 1/04/15  11:10   11.0   11.1   11.0    52    1.5  14.0     W   1.17  23.0   WSW    7.6   10.3    6.8  1025.0  0.00   0.0   0.025   0.000   22.1    35    5.9   20.7   7.01 1.1990    116    1    100.0    5 
 1/04/15  11:15   10.5   11.0   10.5    58    2.6  12.0   WSW   1.00  21.0   WNW    7.4    9.9    6.8  1025.0  0.00   0.0   0.027   0.000   22.2    35    6.0   20.8   7.01 1.1987    117    1    100.0    5 
 1/04/15  11:20   10.3   10.5   10.3    59    2.7  16.0     W   1.33  25.0     W    6.4    9.8    5.9  1025.1  0.00   0.0   0.028   0.000   22.2    35    6.0   20.8   7.01 1.1989    115    1    100.0    5 
 1/04/15  11:25    9.8   10.3    9.8    66    3.7  15.0   WSW   1.25  23.0     W    6.0    9.4    5.7  1025.1  0.00   0.0   0.030   0.000   22.2    35    6.0   20.9   7.01 1.1986    117    1    100.0    5 
 1/04/15  11:30    9.4    9.8    9.4    69    4.0  17.0   WSW   1.42  24.0   WSW    5.3    9.2    5.1  1024.9  0.00   0.0   0.031   0.000   22.2    35    6.0   20.9   7.01 1.1983    117    1    100.0    5 
 1/04/15  11:35    9.7    9.7    9.4    68    4.0  15.0     W   1.25  23.0     W    5.8    9.4    5.6  1024.9  0.00   0.0   0.030   0.000   22.2    35    6.0   20.9   7.01 1.1984    117    1    100.0    5 
 1/04/15  11:40    9.9    9.9    9.7    65    3.6  15.0     W   1.25  23.0     W    6.1    9.6    5.8  1024.9  0.00   0.0   0.029   0.000   22.2    35    6.0   20.9   7.01 1.1984    116    1    100.0    5 
 1/04/15  11:45    9.5    9.9    9.5    68    3.9  19.0   WSW   1.58  25.0   WSW    5.0    9.2    4.7  1024.8  0.00   0.0   0.031   0.000   22.2    35    6.0   20.9   7.01 1.1983    117    1    100.0    5 
 1/04/15  11:50    9.8    9.8    9.5    63    3.1  17.0     W   1.42  25.0     W    5.7    9.4    5.3  1024.9  0.00   0.0   0.030   0.000   22.2    35    6.0   20.9   7.01 1.1984    117    1    100.0    5 
 1/04/15  11:55    9.8    9.8    9.8    68    4.1  16.0   WSW   1.33  26.0   WSW    5.8    9.5    5.5  1024.9  0.00   0.0   0.030   0.000   22.2    35    6.0   20.9   7.01 1.1984    117    1    100.0    5 
 1/04/15  12:00    9.6    9.8    9.6    67    3.8  18.0   WSW   1.50  26.0     W    5.3    9.3    5.0  1024.9  0.00   0.0   0.030   0.000   22.2    35    6.0   20.9   7.01 1.1983    117    1    100.0    5 
 1/04/15  12:05    9.4    9.6    9.4    68    3.8  16.0   WSW   1.33  27.0   WSW    5.4    9.2    5.1  1024.8  0.00   0.0   0.031   0.000   22.2    35    6.0   20.9   7.01 1.1983    116    1    100.0    5 
 1/04/15  12:10    9.4    9.4    9.4    60    2.1  18.0     W   1.50  26.0     W    5.1    9.0    4.7  1024.9  0.00   0.0   0.031   0.000   22.2    35    6.0   20.9   7.01 1.1984    117    1    100.0    5 
 1/04/15  12:15    9.7    9.7    9.4    57    1.6  13.0     W   1.08  22.0     W    6.2    9.2    5.7  1024.9  0.00   0.0   0.030   0.000   22.2    35    6.0   20.9   7.01 1.1984    117    1    100.0    5 
 1/04/15  12:20    9.5    9.7    9.5    70    4.3  16.0   WSW   1.33  23.0     W    5.4    9.3    5.2  1024.9  0.00   0.0   0.031   0.000   22.2    35    6.0   20.9   7.01 1.1984    115    1    100.0    5 
 1/04/15  12:25    9.3    9.5    9.3    75    5.1  15.0   WSW   1.25  24.0   WSW    5.5    9.2    5.3  1024.9  0.00   0.0   0.031   0.000   22.2    35    6.0   20.9   7.01 1.1984    116    1    100.0    5 
 1/04/15  12:30    9.0    9.3    9.0    79    5.6  18.0   WSW   1.50  25.0   WSW    4.6    8.9    4.6  1024.8  0.00   0.0   0.032   0.000   22.2    35    6.0   20.9   7.01 1.1982    117    1    100.0    5 
 1/04/15  12:35    8.7    8.9    8.7    77    4.9  22.0   WSW   1.83  28.0   WSW    3.7    8.6    3.6  1024.7  0.00   0.0   0.034   0.000   22.2    35    6.0   20.9   7.01 1.1981    117    1    100.0    5 
 1/04/15  12:40    8.6    8.7    8.6    78    5.0  23.0   WSW   1.92  28.0   WSW    3.5    8.5    3.4  1024.7  0.00   0.0   0.034   0.000   22.2    35    6.0   20.9   7.01 1.1981    118    1    100.0    5 
 1/04/15  12:45    8.7    8.7    8.6    79    5.2  22.0   WSW   1.83  27.0   WSW    3.7    8.6    3.6  1024.6  0.00   0.0   0.034   0.000   22.2    35    6.0   20.9   7.01 1.1980    117    1    100.0    5 
 1/04/15  12:50    8.7    8.7    8.6    79    5.2  18.0   WSW   1.50  24.0   WSW    4.2    8.6    4.1  1024.5  0.00   0.0   0.034   0.000   22.2    35    6.0   20.9   7.01 1.1979    116    1    100.0    5 
 1/04/15  12:55    8.6    8.7    8.6    79    5.1  23.0   WSW   1.92  28.0   WSW    3.4    8.4    3.3  1024.4  0.00   0.0   0.034   0.000   22.2    35    6.0   20.9   7.01 1.1978    117    1    100.0    5 
 1/04/15  13:00    8.6    8.6    8.5    80    5.3  23.0   WSW   1.92  29.0   WSW    3.4    8.4    3.3  1024.4  0.00   0.0   0.034   0.000   22.2    35    6.0   20.9   7.01 1.1978    115    1    100.0    5 
 1/04/15  13:05    8.7    8.7    8.6    80    5.5  21.0   WSW   1.75  29.0   WSW    3.9    8.7    3.8  1024.3  0.00   0.0   0.033   0.000   22.2    35    6.0   20.9   7.01 1.1977    115    1    100.0    5 
 1/04/15  13:10    8.7    8.7    8.7    80    5.5  20.0   WSW   1.67  26.0   WSW    4.0    8.7    3.9  1024.3  0.00   0.0   0.033   0.000   22.2    35    6.0   20.9   7.01 1.1977    117    1    100.0    5 
 1/04/15  13:15    8.6    8.7    8.6    81    5.5  21.0   WSW   1.75  26.0   WSW    3.8    8.6    3.7  1024.3  0.00   0.0   0.034   0.000   22.2    35    6.0   20.9   7.01 1.1976    117    1    100.0    5 
 1/04/15  13:20    8.4    8.6    8.4    80    5.2  23.0   WSW   1.92  29.0   WSW    3.3    8.3    3.2  1024.2  0.00   0.0   0.034   0.000   22.2    36    6.4   20.9   7.17 1.1972    117    1    100.0    5 
 1/04/15  13:25    8.4    8.5    8.4    79    5.0  22.0   WSW   1.83  28.0   WSW    3.4    8.3    3.3  1024.1  0.00   0.0   0.034   0.000   22.3    36    6.5   21.1   7.17 1.1969    117    1    100.0    5 
 1/04/15  13:30    8.5    8.5    8.4    80    5.2  20.0   WSW   1.67  26.0   WSW    3.8    8.4    3.7  1024.1  0.00   0.0   0.034   0.000   22.3    36    6.5   21.1   7.17 1.1969    117    1    100.0    5 
 1/04/15  13:35    8.6    8.6    8.5    79    5.1  23.0   WSW   1.92  30.0   WSW    3.4    8.4    3.3  1024.1  0.00   0.0   0.034   0.000   22.3    36    6.5   21.1   7.16 1.1966    116    1    100.0    5 
 1/04/15  13:40    8.7    8.7    8.6    79    5.2  21.0   WSW   1.75  28.0   WSW    3.8    8.6    3.7  1024.0  0.00   0.0   0.034   0.000   22.3    36    6.5   21.1   7.16 1.1965    117    1    100.0    5 
 1/04/15  13:45    8.7    8.7    8.7    79    5.2  23.0   WSW   1.92  30.0   WSW    3.6    8.6    3.5  1024.0  0.00   0.0   0.034   0.000   22.3    36    6.5   21.1   7.16 1.1965    118    1    100.0    5 
 1/04/15  13:50    8.6    8.7    8.6    81    5.5  22.0   WSW   1.83  27.0   WSW    3.7    8.6    3.6  1024.0  0.00   0.0   0.034   0.000   22.4    36    6.6   21.2   7.16 1.1962    117    1    100.0    5 
 1/04/15  13:55    8.7    8.7    8.6    81    5.6  21.0   WSW   1.75  27.0   WSW    3.8    8.6    3.8  1024.0  0.00   0.0   0.034   0.000   22.4    36    6.6   21.2   7.16 1.1962    117    1    100.0    5 
 1/04/15  14:00    8.7    8.7    8.7    81    5.6  20.0   WSW   1.67  24.0   WSW    3.9    8.6    3.9  1023.9  0.00   0.0   0.034   0.000   22.4    36    6.6   21.3   7.15 1.1959    117    1    100.0    5 
 1/04/15  14:05    8.7    8.7    8.6    81    5.6  21.0   WSW   1.75  26.0   WSW    3.8    8.6    3.8  1023.9  0.00   0.0   0.034   0.000   22.4    37    7.0   21.3   7.30 1.1955    117    1    100.0    5 
 1/04/15  14:10    8.7    8.7    8.7    81    5.6  19.0   WSW   1.58  26.0   WSW    4.2    8.7    4.1  1023.8  0.00   0.0   0.033   0.000   22.5    37    7.1   21.4   7.30 1.1951    117    1    100.0    5 
 1/04/15  14:15    8.7    8.7    8.7    82    5.8  21.0   WSW   1.75  27.0   WSW    3.8    8.6    3.8  1023.6  0.00   0.0   0.034   0.000   22.6    37    7.1   21.6   7.30 1.1947    115    1    100.0    5 
 1/04/15  14:20    8.6    8.7    8.6    80    5.4  24.0   WSW   2.00  28.0   WSW    3.4    8.5    3.3  1023.6  0.00   0.0   0.034   0.000   22.6    37    7.1   21.6   7.30 1.1946    117    1    100.0    5 
 1/04/15  14:25    8.6    8.6    8.6    81    5.5  23.0   WSW   1.92  29.0   WSW    3.5    8.6    3.4  1023.4  0.00   0.0   0.034   0.000   22.6    37    7.2   21.6   7.30 1.1941    116    1    100.0    5 
 1/04/15  14:30    8.7    8.7    8.6    81    5.6  24.0   WSW   2.00  30.0   WSW    3.5    8.6    3.4  1023.4  0.00   0.0   0.034   0.000   22.6    37    7.2   21.6   7.30 1.1941    116    1    100.0    5 
 1/04/15  14:35    8.7    8.7    8.7    82    5.8  23.0   WSW   1.92  29.0   WSW    3.6    8.6    3.6  1023.4  0.00   0.0   0.034   0.000   22.7    37    7.2   21.7   7.29 1.1938    116    1    100.0    5 
 1/04/15  14:40    8.7    8.7    8.7    82    5.8  23.0   WSW   1.92  29.0   WSW    3.6    8.6    3.6  1023.3  0.00   0.0   0.034   0.000   22.7    37    7.3   21.8   7.29 1.1935    117    1    100.0    5 
 1/04/15  14:45    8.7    8.7    8.6    82    5.8  20.0   WSW   1.67  28.0   WSW    3.9    8.6    3.9  1023.3  0.00   0.0   0.034   0.000   22.7    37    7.3   21.8   7.29 1.1935    116    1    100.0    5 
 1/04/15  14:50    8.7    8.7    8.7    81    5.6  17.0   WSW   1.42  25.0   WSW    4.4    8.7    4.4  1023.2  0.00   0.0   0.033   0.000   22.8    37    7.3   21.9   7.29 1.1931    118    1    100.0    5 
 1/04/15  14:55    8.8    8.8    8.7    82    5.9  16.0   WSW   1.33  24.0   WSW    4.7    8.7    4.6  1023.3  0.00   0.0   0.033   0.000   22.8    37    7.3   21.9   7.29 1.1932    117    1    100.0    5 
 1/04/15  15:00    8.7    8.8    8.7    82    5.8  19.0   WSW   1.58  24.0   WSW    4.2    8.7    4.1  1023.3  0.00   0.0   0.033   0.000   22.8    37    7.4   21.9   7.29 1.1929    116    1    100.0    5 
 1/04/15  15:05    8.7    8.8    8.7    82    5.8  16.0   WSW   1.33  25.0     W    4.6    8.7    4.6  1023.2  0.00   0.0   0.033   0.000   22.9    38    7.8   22.1   7.42 1.1923    117    1    100.0    5 
 1/04/15  15:10    8.7    8.8    8.7    81    5.6  19.0   WSW   1.58  26.0   WSW    4.2    8.7    4.1  1023.2  0.00   0.0   0.033   0.000   22.9    38    7.9   22.2   7.42 1.1919    117    1    100.0    5 
 1/04/15  15:15    8.8    8.8    8.7    81    5.7  18.0   WSW   1.50  25.0   WSW    4.4    8.7    4.3  1023.2  0.00   0.0   0.033   0.000   23.0    39    8.3   22.3   7.58 1.1914    116    1    100.0    5 
 1/04/15  15:20    8.8    8.8    8.8    80    5.5  17.0   WSW   1.42  25.0     W    4.5    8.7    4.4  1023.2  0.00   0.0   0.033   0.000   23.1    39    8.3   22.4   7.58 1.1911    117    1    100.0    5 
 1/04/15  15:25    8.8    8.8    8.8    81    5.7  15.0   WSW   1.25  23.0   WSW    4.8    8.7    4.8  1023.2  0.00   0.0   0.033   0.000   23.1    39    8.3   22.4   7.58 1.1911    117    1    100.0    5 
 1/04/15  15:30    8.8    8.8    8.8    81    5.7  17.0   WSW   1.42  24.0   WSW    4.5    8.7    4.4  1023.1  0.00   0.0   0.033   0.000   23.1    38    8.0   22.4   7.41 1.1910    116    1    100.0    5 
 1/04/15  15:35    8.8    8.8    8.8    81    5.7  17.0   WSW   1.42  26.0   WSW    4.5    8.7    4.4  1023.0  0.00   0.0   0.033   0.000   23.1    38    8.0   22.4   7.41 1.1909    117    1    100.0    5 
 1/04/15  15:40    8.8    8.8    8.8    81    5.7  17.0   WSW   1.42  24.0   WSW    4.5    8.7    4.4  1023.0  0.00   0.0   0.033   0.000   23.1    38    8.0   22.4   7.41 1.1909    117    1    100.0    5 
 1/04/15  15:45    8.8    8.8    8.8    81    5.7  17.0   WSW   1.42  24.0   WSW    4.5    8.7    4.4  1022.9  0.00   0.0   0.033   0.000   23.1    38    8.0   22.4   7.41 1.1908    116    1    100.0    5 
 1/04/15  15:50    8.8    8.8    8.7    82    5.9  21.0   WSW   1.75  29.0   WSW    3.9    8.7    3.9  1022.9  0.00   0.0   0.033   0.000   23.2    37    7.7   22.4   7.28 1.1909    118    1    100.0    5 
 1/04/15  15:55    8.7    8.8    8.7    83    6.0  19.0   WSW   1.58  24.0   WSW    4.2    8.7    4.1  1022.9  0.00   0.0   0.033   0.000   23.2    37    7.7   22.4   7.28 1.1908    117    1    100.0    5 
 1/04/15  16:00    8.7    8.7    8.7    83    5.9  18.0   WSW   1.50  24.0   WSW    4.2    8.6    4.2  1022.8  0.00   0.0   0.034   0.000   23.2    37    7.7   22.4   7.28 1.1908    116    1    100.0    5 
 1/04/15  16:05    8.7    8.7    8.7    83    5.9  18.0   WSW   1.50  25.0   WSW    4.2    8.6    4.2  1022.8  0.00   0.0   0.034   0.000   23.2    37    7.7   22.4   7.28 1.1908    117    1    100.0    5 
 1/04/15  16:10    8.7    8.7    8.7    83    5.9  18.0   WSW   1.50  24.0   WSW    4.2    8.6    4.2  1022.8  0.00   0.0   0.034   0.000   23.2    37    7.7   22.4   7.28 1.1908    117    1    100.0    5 
 1/04/15  16:15    8.6    8.7    8.6    83    5.9  16.0   WSW   1.33  22.0   WSW    4.5    8.6    4.4  1022.8  0.00   0.0   0.034   0.000   23.2    37    7.7   22.4   7.28 1.1908    116    1    100.0    5 
 1/04/15  16:20    8.6    8.7    8.6    84    6.1  13.0   WSW   1.08  19.0   WSW    5.1    8.6    5.1  1022.8  0.00   0.0   0.034   0.000   23.1    37    7.6   22.4   7.28 1.1910    115    1    100.0    5 
 1/04/15  16:25    8.7    8.7    8.6    84    6.1  14.0   WSW   1.17  19.0   WSW    4.9    8.7    4.9  1022.7  0.00   0.0   0.034   0.000   23.2    36    7.3   22.4   7.10 1.1910    116    1    100.0    5 
 1/04/15  16:30    8.7    8.7    8.7    84    6.1  13.0   WSW   1.08  18.0   WSW    5.1    8.7    5.1  1022.6  0.00   0.0   0.034   0.000   23.2    36    7.3   22.4   7.10 1.1909    116    1    100.0    5 
 1/04/15  16:35    8.7    8.7    8.6    84    6.1  15.0   WSW   1.25  22.0   WSW    4.7    8.7    4.7  1022.6  0.00   0.0   0.034   0.000   23.2    36    7.3   22.4   7.10 1.1908    116    1    100.0    5 
 1/04/15  16:40    8.6    8.6    8.6    84    6.1  16.0   WSW   1.33  23.0   WSW    4.5    8.6    4.5  1022.4  0.00   0.0   0.034   0.000   23.1    36    7.2   22.3   7.11 1.1909    117    1    100.0    5 
 1/04/15  16:45    8.7    8.7    8.6    83    5.9  17.0   WSW   1.42  24.0   WSW    4.4    8.6    4.3  1022.5  0.00   0.0   0.034   0.000   23.2    36    7.3   22.4   7.10 1.1908    115    1    100.0    5 
 1/04/15  16:50    8.6    8.7    8.6    84    6.1  17.0   WSW   1.42  22.0   WSW    4.3    8.6    4.3  1022.4  0.00   0.0   0.034   0.000   23.1    36    7.2   22.3   7.11 1.1909    116    1    100.0    5 
 1/04/15  16:55    8.6    8.6    8.6    84    6.0  17.0   WSW   1.42  24.0   WSW    4.2    8.6    4.2  1022.4  0.00   0.0   0.034   0.000   23.1    36    7.2   22.3   7.11 1.1908    118    1    100.0    5 
 1/04/15  17:00    8.6    8.6    8.6    84    6.0  16.0   WSW   1.33  22.0   WSW    4.4    8.6    4.4  1022.3  0.00   0.0   0.034   0.000   23.1    36    7.2   22.3   7.11 1.1908    117    1    100.0    5 
 1/04/15  17:05    8.6    8.6    8.6    83    5.8  15.0   WSW   1.25  23.0   WSW    4.6    8.5    4.5  1022.4  0.00   0.0   0.034   0.000   23.1    36    7.2   22.3   7.11 1.1909    117    1    100.0    5 
 1/04/15  17:10    8.6    8.6    8.6    83    5.8  14.0   WSW   1.17  20.0   WSW    4.7    8.5    4.7  1022.4  0.00   0.0   0.034   0.000   23.1    36    7.2   22.3   7.11 1.1908    116    1    100.0    5 
 1/04/15  17:15    8.6    8.6    8.6    83    5.9  16.0   WSW   1.33  20.0   WSW    4.5    8.6    4.4  1022.3  0.00   0.0   0.034   0.000   23.1    36    7.2   22.2   7.11 1.1910    116    1    100.0    5 
 1/04/15  17:20    8.6    8.7    8.6    84    6.1  16.0   WSW   1.33  22.0   WSW    4.5    8.6    4.5  1022.3  0.00   0.0   0.034   0.000   23.1    36    7.2   22.2   7.11 1.1911    116    1    100.0    5 
 1/04/15  17:25    8.6    8.6    8.6    84    6.1  14.0   WSW   1.17  19.0   WSW    4.8    8.6    4.8  1022.3  0.00   0.0   0.034   0.000   23.1    36    7.2   22.2   7.11 1.1910    117    1    100.0    5 
 1/04/15  17:30    8.6    8.6    8.6    85    6.2  13.0   WSW   1.08  19.0   WSW    5.1    8.6    5.1  1022.4  0.00   0.0   0.034   0.000   23.1    36    7.2   22.2   7.11 1.1911    117    1    100.0    5 
 1/04/15  17:35    8.7    8.7    8.6    85    6.3  12.0   WSW   1.00  21.0   WSW    5.3    8.7    5.3  1022.3  0.00   0.0   0.034   0.000   23.0    36    7.1   22.2   7.11 1.1913    117    1    100.0    5 
 1/04/15  17:40    8.7    8.7    8.6    85    6.3  13.0   WSW   1.08  19.0   WSW    5.1    8.7    5.1  1022.3  0.00   0.0   0.034   0.000   23.0    36    7.1   22.2   7.11 1.1913    116    1    100.0    5 
 1/04/15  17:45    8.7    8.7    8.7    86    6.5  14.0   WSW   1.17  19.0   WSW    4.9    8.7    4.9  1022.1  0.00   0.0   0.034   0.000   22.9    36    7.1   22.1   7.12 1.1913    117    1    100.0    5 
 1/04/15  17:50    8.6    8.7    8.6    86    6.4  14.0   WSW   1.17  19.0   WSW    4.8    8.6    4.8  1022.1  0.00   0.0   0.034   0.000   22.9    36    7.1   22.1   7.12 1.1913    117    1    100.0    5 
 1/04/15  17:55    8.7    8.7    8.6    86    6.5  12.0   WSW   1.00  18.0     W    5.3    8.7    5.3  1022.1  0.00   0.0   0.034   0.000   22.9    36    7.1   22.1   7.12 1.1913    117    1    100.0    5 
 1/04/15  18:00    8.6    8.7    8.6    85    6.2  12.0   WSW   1.00  18.0     W    5.3    8.6    5.3  1022.0  0.00   0.0   0.034   0.000   22.9    36    7.0   22.0   7.12 1.1915    118    1    100.0    5 
 1/04/15  18:05    8.7    8.7    8.6    84    6.1  13.0     W   1.08  19.0     W    5.1    8.7    5.1  1022.0  0.00   0.0   0.034   0.000   22.9    36    7.0   22.0   7.12 1.1915    116    1    100.0    5 
 1/04/15  18:10    8.7    8.7    8.7    83    6.0  14.0     W   1.17  19.0     W    4.9    8.7    4.9  1022.0  0.00   0.0   0.033   0.000   22.8    36    7.0   21.9   7.13 1.1917    117    1    100.0    5 
 1/04/15  18:15    8.7    8.7    8.7    82    5.8  13.0     W   1.08  19.0     W    5.1    8.6    5.1  1022.0  0.00   0.0   0.034   0.000   22.8    36    7.0   21.9   7.13 1.1917    117    1    100.0    5 
 1/04/15  18:20    8.7    8.7    8.6    82    5.8  12.0     W   1.00  16.0     W    5.3    8.6    5.3  1021.8  0.00   0.0   0.034   0.000   22.8    36    7.0   21.9   7.13 1.1915    117    1    100.0    5 
 1/04/15  18:25    8.7    8.7    8.7    82    5.8  13.0   WSW   1.08  19.0     W    5.2    8.7    5.1  1021.8  0.00   0.0   0.033   0.000   22.8    36    6.9   21.8   7.13 1.1917    117    1    100.0    5 
 1/04/15  18:30    8.7    8.7    8.7    82    5.8  16.0   WSW   1.33  20.0   WSW    4.6    8.7    4.6  1021.7  0.00   0.0   0.033   0.000   22.8    36    6.9   21.8   7.13 1.1917    117    1    100.0    5 
 1/04/15  18:35    8.7    8.7    8.7    84    6.2  15.0   WSW   1.25  20.0   WSW    4.8    8.7    4.8  1021.6  0.00   0.0   0.033   0.000   22.8    36    6.9   21.8   7.13 1.1915    117    1    100.0    5 
 1/04/15  18:40    8.7    8.7    8.7    85    6.3  15.0   WSW   1.25  20.0   WSW    4.7    8.7    4.7  1021.5  0.00   0.0   0.034   0.000   22.7    36    6.9   21.7   7.13 1.1917    116    1    100.0    5 
 1/04/15  18:45    8.7    8.7    8.7    85    6.3  17.0   WSW   1.42  21.0   WSW    4.4    8.7    4.4  1021.6  0.00   0.0   0.034   0.000   22.7    35    6.5   21.7   6.99 1.1921    117    1    100.0    5 
 1/04/15  18:50    8.7    8.7    8.7    84    6.1  17.0   WSW   1.42  23.0    SW    4.4    8.7    4.4  1021.5  0.00   0.0   0.034   0.000   22.7    35    6.4   21.6   6.99 1.1923    116    1    100.0    5 
 1/04/15  18:55    8.7    8.7    8.7    83    5.9  14.0   WSW   1.17  22.0   WSW    4.9    8.6    4.8  1021.5  0.00   0.0   0.034   0.000   22.7    35    6.4   21.6   6.99 1.1923    117    1    100.0    5 
 1/04/15  19:00    8.7    8.7    8.7    84    6.1  15.0   WSW   1.25  20.0   WSW    4.7    8.7    4.7  1021.5  0.00   0.0   0.034   0.000   22.6    35    6.4   21.5   7.00 1.1926    117    1    100.0    5 
 1/04/15  19:05    8.6    8.7    8.6    85    6.2  15.0   WSW   1.25  22.0   WSW    4.6    8.6    4.6  1021.4  0.00   0.0   0.034   0.000   22.6    35    6.4   21.5   7.00 1.1924    118    1    100.0    5 
 1/04/15  19:10    8.6    8.7    8.6    87    6.5  17.0   WSW   1.42  22.0   WSW    4.2    8.6    4.3  1021.4  0.00   0.0   0.034   0.000   22.6    35    6.3   21.4   7.00 1.1927    115    1    100.0    5 
 1/04/15  19:15    8.5    8.6    8.5    87    6.5  15.0   WSW   1.25  22.0   WSW    4.5    8.6    4.6  1021.4  0.00   0.0   0.034   0.000   22.6    35    6.3   21.4   7.00 1.1927    117    1    100.0    5 
 1/04/15  19:20    8.4    8.5    8.4    88    6.6  17.0   WSW   1.42  24.0   WSW    4.1    8.5    4.2  1021.3  0.00   0.0   0.034   0.000   22.5    36    6.7   21.4   7.15 1.1925    117    1    100.0    5 
 1/04/15  19:25    8.4    8.5    8.4    88    6.6  18.0   WSW   1.50  24.0   WSW    3.9    8.5    4.0  1021.3  0.00   0.0   0.034   0.000   22.5    36    6.7   21.4   7.15 1.1925    117    1    100.0    5 
 1/04/15  19:30    8.4    8.4    8.4    89    6.7  17.0   WSW   1.42  25.0   WSW    4.1    8.6    4.2  1021.2  0.00   0.0   0.034   0.000   22.5    36    6.7   21.4   7.15 1.1924    117    1    100.0    5 
 1/04/15  19:35    8.4    8.4    8.4    89    6.7  19.0   WSW   1.58  26.0   WSW    3.8    8.5    3.9  1021.1  0.00   0.0   0.035   0.000   22.4    36    6.6   21.3   7.15 1.1925    117    1    100.0    5 
 1/04/15  19:40    8.4    8.4    8.4    89    6.7  21.0   WSW   1.75  29.0   WSW    3.5    8.5    3.6  1021.0  0.00   0.0   0.035   0.000   22.4    36    6.6   21.2   7.16 1.1927    116    1    100.0    5 
 1/04/15  19:45    8.3    8.4    8.3    90    6.8  23.0   WSW   1.92  31.0   WSW    3.2    8.4    3.3  1020.9  0.00   0.0   0.035   0.000   22.4    36    6.6   21.2   7.16 1.1925    116    1    100.0    5 
 1/04/15  19:50    8.2    8.3    8.2    90    6.6  23.0   WSW   1.92  31.0   WSW    3.0    8.3    3.1  1020.8  0.00   0.0   0.035   0.000   22.4    36    6.6   21.2   7.16 1.1925    115    1    100.0    5 
 1/04/15  19:55    8.2    8.2    8.2    91    6.8  18.0   WSW   1.50  23.0   WSW    3.7    8.3    3.8  1020.7  0.00   0.0   0.035   0.000   22.4    37    7.0   21.3   7.30 1.1920    117    1    100.0    5 
 1/04/15  20:00    8.1    8.2    8.1    91    6.7  18.0   WSW   1.50  26.0   WSW    3.6    8.2    3.7  1020.6  0.00   0.0   0.035   0.000   22.3    37    6.9   21.2   7.31 1.1922    117    1    100.0    5 
 1/04/15  20:05    8.2    8.2    8.1    92    6.9  18.0   WSW   1.50  23.0   WSW    3.7    8.3    3.8  1020.6  0.00   0.0   0.035   0.000   22.4    37    7.0   21.3   7.30 1.1918    117    1    100.0    5 
 1/04/15  20:10    8.1    8.2    8.1    92    6.9  19.0   WSW   1.58  26.0   WSW    3.4    8.2    3.6  1020.5  0.00   0.0   0.035   0.000   22.3    37    6.9   21.2   7.31 1.1920    118    1    100.0    5 
 1/04/15  20:15    8.1    8.1    8.1    92    6.8  19.0   WSW   1.58  26.0   WSW    3.4    8.2    3.5  1020.3  0.00   0.0   0.036   0.000   22.4    37    7.0   21.3   7.30 1.1915    117    1    100.0    5 
 1/04/15  20:20    8.1    8.1    8.1    93    7.0  18.0   WSW   1.50  26.0     W    3.5    8.2    3.6  1020.3  0.00   0.0   0.036   0.000   22.4    38    7.4   21.3   7.46 1.1911    117    1    100.0    5 
 1/04/15  20:25    8.1    8.1    8.1    93    7.0  18.0   WSW   1.50  26.0   WSW    3.5    8.2    3.6  1020.1  0.00   0.0   0.036   0.000   22.4    38    7.4   21.3   7.46 1.1910    117    1    100.0    5 
 1/04/15  20:30    8.1    8.1    8.1    93    7.0  18.0   WSW   1.50  27.0   WSW    3.6    8.2    3.7  1019.9  0.00   0.0   0.035   0.000   22.4    38    7.4   21.4   7.45 1.1904    116    1    100.0    5 
 1/04/15  20:35    8.2    8.2    8.1    93    7.1  21.0   WSW   1.75  30.0   WSW    3.3    8.3    3.4  1019.8  0.00   0.0   0.035   0.000   22.4    38    7.4   21.4   7.45 1.1904    117    1    100.0    5 
 1/04/15  20:40    8.3    8.3    8.2    92    7.1  22.0   WSW   1.83  33.0   WSW    3.3    8.4    3.4  1019.7  0.00   0.0   0.035   0.000   22.5    38    7.5   21.5   7.45 1.1900    115    1    100.0    5 
 1/04/15  20:45    8.3    8.3    8.3    92    7.1  22.0   WSW   1.83  30.0   WSW    3.3    8.4    3.4  1019.6  0.00   0.0   0.035   0.000   22.6    38    7.5   21.6   7.45 1.1896    116    1    100.0    5 
 1/04/15  20:50    8.3    8.3    8.3    92    7.1  20.0   WSW   1.67  27.0     W    3.5    8.4    3.6  1019.6  0.00   0.0   0.035   0.000   22.6    39    7.9   21.7   7.60 1.1892    116    1    100.0    5 
 1/04/15  20:55    8.3    8.3    8.3    92    7.1  21.0   WSW   1.75  29.0   WSW    3.4    8.4    3.5  1019.6  0.00   0.0   0.035   0.000   22.6    39    7.9   21.7   7.60 1.1890    117    1    100.0    5 
 1/04/15  21:00    8.4    8.4    8.3    92    7.2  21.0   WSW   1.75  30.0     W    3.5    8.5    3.6  1019.6  0.00   0.0   0.035   0.000   22.6    39    7.9   21.7   7.60 1.1890    116    1    100.0    5 
 1/04/15  21:05    8.4    8.4    8.4    92    7.2  21.0   WSW   1.75  28.0     W    3.5    8.5    3.6  1019.5  0.00   0.0   0.035   0.000   22.7    39    8.0   21.8   7.59 1.1886    115    1    100.0    5 
 1/04/15  21:10    8.4    8.4    8.4    92    7.2  19.0   WSW   1.58  29.0     W    3.8    8.5    3.9  1019.4  0.00   0.0   0.035   0.000   22.7    39    8.0   21.9   7.59 1.1882    118    1    100.0    5 
 1/04/15  21:15    8.4    8.4    8.4    93    7.3  20.0   WSW   1.67  29.0   WSW    3.6    8.6    3.8  1019.2  0.00   0.0   0.035   0.000   22.7    39    8.0   21.9   7.59 1.1880    116    1    100.0    5 
 1/04/15  21:20    8.3    8.4    8.3    93    7.3  20.0   WSW   1.67  29.0     W    3.6    8.5    3.7  1019.3  0.00   0.0   0.035   0.000   22.8    39    8.1   22.0   7.59 1.1878    116    1    100.0    5 
 1/04/15  21:25    8.3    8.3    8.3    93    7.2  20.0   WSW   1.67  27.0   WSW    3.5    8.4    3.7  1019.2  0.00   0.0   0.035   0.000   22.8    39    8.1   22.0   7.59 1.1877    116    1    100.0    5 
 1/04/15  21:30    8.3    8.3    8.3    93    7.3  18.0   WSW   1.50  26.0   WSW    3.8    8.5    4.0  1019.1  0.00   0.0   0.035   0.000   22.8    39    8.1   22.1   7.59 1.1873    117    1    100.0    5 
 1/04/15  21:35    8.3    8.3    8.3    93    7.3  20.0   WSW   1.67  29.0     W    3.6    8.5    3.7  1019.0  0.00   0.0   0.035   0.000   22.8    39    8.1   22.1   7.59 1.1872    117    1    100.0    5 
 1/04/15  21:40    8.3    8.3    8.3    94    7.4  21.0   WSW   1.75  31.0   WSW    3.4    8.5    3.6  1019.0  0.00   0.0   0.035   0.000   22.9    39    8.2   22.2   7.59 1.1869    116    1    100.0    5 
 1/04/15  21:45    8.3    8.3    8.3    94    7.4  19.0   WSW   1.58  28.0   WSW    3.7    8.5    3.9  1018.9  0.00   0.0   0.035   0.000   22.9    39    8.2   22.2   7.59 1.1868    117    1    100.0    5 
 1/04/15  21:50    8.4    8.4    8.3    94    7.5  19.0   WSW   1.58  29.0   WSW    3.8    8.6    3.9  1018.8  0.00   0.0   0.035   0.000   22.9    38    7.8   22.1   7.42 1.1871    117    1    100.0    5 
 1/04/15  21:55    8.5    8.5    8.4    93    7.4  19.0   WSW   1.58  29.0    SW    3.9    8.7    4.1  1018.8  0.00   0.0   0.034   0.000   22.9    38    7.9   22.2   7.42 1.1867    117    1    100.0    5 
 1/04/15  22:00    8.5    8.5    8.5    93    7.4  18.0     W   1.50  26.0     W    4.1    8.7    4.2  1018.7  0.00   0.0   0.034   0.000   22.9    38    7.9   22.2   7.42 1.1867    117    1    100.0    5 
 1/04/15  22:05    8.5    8.6    8.5    93    7.4  20.0   WSW   1.67  29.0     W    3.8    8.7    3.9  1018.7  0.00   0.0   0.034   0.000   22.9    38    7.9   22.2   7.42 1.1867    116    1    100.0    5 
 1/04/15  22:10    8.6    8.6    8.6    93    7.5  21.0     W   1.75  29.0   WSW    3.7    8.7    3.8  1018.5  0.00   0.0   0.034   0.000   23.0    38    7.9   22.3   7.41 1.1862    117    1    100.0    5 
 1/04/15  22:15    8.6    8.6    8.6    93    7.5  20.0     W   1.67  28.0   WSW    3.9    8.8    4.1  1018.5  0.00   0.0   0.034   0.000   23.0    38    7.9   22.3   7.41 1.1862    117    1    100.0    5 
 1/04/15  22:20    8.6    8.6    8.6    93    7.5  19.0     W   1.58  29.0     W    4.1    8.8    4.2  1018.4  0.00   0.0   0.034   0.000   23.0    38    7.9   22.3   7.41 1.1860    117    1    100.0    5 
 1/04/15  22:25    8.6    8.6    8.6    93    7.5  17.0     W   1.42  26.0   WSW    4.3    8.8    4.5  1018.3  0.00   0.0   0.034   0.000   23.0    38    7.9   22.3   7.41 1.1859    116    1    100.0    5 
 1/04/15  22:30    8.7    8.7    8.6    93    7.6  18.0     W   1.50  27.0     W    4.2    8.8    4.4  1018.2  0.00   0.0   0.034   0.000   23.0    38    7.9   22.3   7.41 1.1858     87    1     76.3    5 
 1/04/15  22:35    8.7    8.7    8.6    94    7.8  18.0     W   1.50  26.0     W    4.2    8.8    4.4  1018.1  0.00   0.0   0.034   0.000   23.0    38    7.9   22.3   7.41 1.1856    117    1    100.0    5 
 1/04/15  22:40    8.7    8.7    8.7    94    7.8  18.0     W   1.50  25.0     W    4.2    8.8    4.4  1018.0  0.00   0.0   0.034   0.000   23.1    38    8.0   22.3   7.41 1.1853    117    1    100.0    5 
 1/04/15  22:45    8.7    8.7    8.7    93    7.6  17.0     W   1.42  26.0   WSW    4.4    8.8    4.6  1017.9  0.00   0.0   0.034   0.000   23.1    38    8.0   22.3   7.41 1.1851    116    1    100.0    5 
 1/04/15  22:50    8.7    8.7    8.7    94    7.8  17.0     W   1.42  24.0     W    4.4    8.9    4.6  1017.7  0.00   0.0   0.033   0.000   23.0    38    7.9   22.3   7.41 1.1853    116    1    100.0    5 
116392